SIA228 YMML-WSSS
Flight info
| Callsign | SIA228 |
|---|---|
| Flight time | 7h 7m |
| Altitude | 36000 |
| Route | PEDNI1 PEDNI H345 AD A585 BIDAP DCT TAYER/N0507F380 G578 BLI M635 SURGA T23 UGEBO UGEBO1B |
| Aircraft | A388/J-SDE1E2E3GHIJ1J2J4J5M1P2RWXYZ/LB1D1 |
Departure
| Time | 2026-05-07 17:02 |
|---|---|
| Airport | Melbourne Airport (YMML) |
Arrival
| Time | 2026-05-08 00:09 |
|---|---|
| Airport | Singapore Changi Airport (WSSS) |
| Time | Latitude | Longitude | Altitude | Speed | Heading |
|---|---|---|---|---|---|
| 2026-05-07 16:34 | -37.66749 | 144.84542 | 400 ft | 0 kts | 172° |
| 2026-05-07 16:51 | -37.66727 | 144.84538 | 400 ft | 4 kts | 171° |
| 2026-05-07 16:52 | -37.66700 | 144.84533 | 402 ft | 4 kts | 175° |
| 2026-05-07 16:52 | -37.66675 | 144.84534 | 401 ft | 4 kts | 193° |
| 2026-05-07 16:52 | -37.66662 | 144.84541 | 404 ft | 4 kts | 237° |
| 2026-05-07 16:52 | -37.66659 | 144.84558 | 398 ft | 5 kts | 261° |
| 2026-05-07 16:53 | -37.66655 | 144.84591 | 397 ft | 4 kts | 261° |
| 2026-05-07 16:53 | -37.66655 | 144.84594 | 397 ft | 0 kts | 261° |
| 2026-05-07 16:55 | -37.66658 | 144.84570 | 398 ft | 5 kts | 261° |
| 2026-05-07 16:56 | -37.66666 | 144.84501 | 403 ft | 10 kts | 261° |
| 2026-05-07 16:56 | -37.66677 | 144.84401 | 399 ft | 11 kts | 261° |
| 2026-05-07 16:56 | -37.66705 | 144.84168 | 397 ft | 14 kts | 261° |
| 2026-05-07 16:57 | -37.66717 | 144.84064 | 396 ft | 9 kts | 261° |
| 2026-05-07 16:57 | -37.66721 | 144.83997 | 400 ft | 6 kts | 291° |
| 2026-05-07 16:57 | -37.66694 | 144.83967 | 398 ft | 6 kts | 348° |
| 2026-05-07 16:57 | -37.66615 | 144.83951 | 402 ft | 17 kts | 351° |
| 2026-05-07 16:58 | -37.66492 | 144.83927 | 408 ft | 21 kts | 351° |
| 2026-05-07 16:58 | -37.66333 | 144.83897 | 408 ft | 23 kts | 352° |
| 2026-05-07 16:58 | -37.66183 | 144.83869 | 412 ft | 21 kts | 351° |
| 2026-05-07 16:58 | -37.66034 | 144.83841 | 415 ft | 21 kts | 351° |
| 2026-05-07 16:59 | -37.65886 | 144.83814 | 415 ft | 22 kts | 352° |
| 2026-05-07 16:59 | -37.65742 | 144.83787 | 423 ft | 19 kts | 352° |
| 2026-05-07 16:59 | -37.65631 | 144.83766 | 425 ft | 10 kts | 352° |
| 2026-05-07 16:59 | -37.65587 | 144.83748 | 422 ft | 5 kts | 313° |
| 2026-05-07 17:00 | -37.65578 | 144.83723 | 422 ft | 2 kts | 264° |
| 2026-05-07 17:00 | -37.65582 | 144.83689 | 424 ft | 5 kts | 262° |
| 2026-05-07 17:00 | -37.65588 | 144.83628 | 431 ft | 9 kts | 262° |
| 2026-05-07 17:00 | -37.65606 | 144.83554 | 425 ft | 6 kts | 213° |
| 2026-05-07 17:01 | -37.65689 | 144.83560 | 421 ft | 35 kts | 172° |
| 2026-05-07 17:01 | -37.66201 | 144.83655 | 413 ft | 111 kts | 172° |
| 2026-05-07 17:01 | -37.67161 | 144.83825 | 387 ft | 162 kts | 170° |
| 2026-05-07 17:01 | -37.68335 | 144.84088 | 646 ft | 172 kts | 176° |
| 2026-05-07 17:02 | -37.69506 | 144.84339 | 1266 ft | 169 kts | 179° |
| 2026-05-07 17:02 | -37.70629 | 144.84552 | 2086 ft | 157 kts | 182° |
| 2026-05-07 17:02 | -37.71744 | 144.84746 | 2433 ft | 169 kts | 181° |
| 2026-05-07 17:02 | -37.72975 | 144.84934 | 2617 ft | 186 kts | 181° |
| 2026-05-07 17:03 | -37.74275 | 144.84864 | 2714 ft | 191 kts | 200° |
| 2026-05-07 17:03 | -37.75501 | 144.84097 | 2931 ft | 205 kts | 223° |
| 2026-05-07 17:03 | -37.76372 | 144.82592 | 3224 ft | 223 kts | 249° |
| 2026-05-07 17:03 | -37.76534 | 144.80613 | 3901 ft | 236 kts | 274° |
| 2026-05-07 17:04 | -37.76080 | 144.78579 | 4553 ft | 245 kts | 280° |
| 2026-05-07 17:04 | -37.75595 | 144.76511 | 5315 ft | 246 kts | 279° |
| 2026-05-07 17:04 | -37.75119 | 144.74426 | 6020 ft | 249 kts | 279° |
| 2026-05-07 17:04 | -37.74636 | 144.72311 | 6740 ft | 252 kts | 279° |
| 2026-05-07 17:05 | -37.74062 | 144.70190 | 7402 ft | 259 kts | 287° |
| 2026-05-07 17:05 | -37.73273 | 144.68122 | 8107 ft | 263 kts | 288° |
| 2026-05-07 17:05 | -37.72482 | 144.66025 | 8791 ft | 266 kts | 288° |
| 2026-05-07 17:05 | -37.71691 | 144.63900 | 9495 ft | 269 kts | 288° |
| 2026-05-07 17:06 | -37.70893 | 144.61749 | 10170 ft | 272 kts | 288° |
| 2026-05-07 17:06 | -37.70078 | 144.59550 | 10572 ft | 285 kts | 289° |
| 2026-05-07 17:06 | -37.69212 | 144.57206 | 10737 ft | 303 kts | 289° |
| 2026-05-07 17:06 | -37.68293 | 144.54727 | 10903 ft | 321 kts | 289° |
| 2026-05-07 17:07 | -37.67320 | 144.52118 | 11167 ft | 333 kts | 290° |
| 2026-05-07 17:07 | -37.66323 | 144.49465 | 11773 ft | 336 kts | 290° |
| 2026-05-07 17:07 | -37.65317 | 144.46791 | 12369 ft | 339 kts | 290° |
| 2026-05-07 17:07 | -37.64303 | 144.44094 | 12967 ft | 342 kts | 290° |
| 2026-05-07 17:08 | -37.63282 | 144.41373 | 13521 ft | 345 kts | 290° |
| 2026-05-07 17:08 | -37.62251 | 144.38624 | 14103 ft | 347 kts | 290° |
| 2026-05-07 17:08 | -37.61213 | 144.35862 | 14627 ft | 350 kts | 290° |
| 2026-05-07 17:08 | -37.60168 | 144.33082 | 15163 ft | 352 kts | 290° |
| 2026-05-07 17:09 | -37.59114 | 144.30280 | 15661 ft | 355 kts | 290° |
| 2026-05-07 17:09 | -37.58052 | 144.27457 | 16179 ft | 358 kts | 290° |
| 2026-05-07 17:09 | -37.56983 | 144.24615 | 16673 ft | 360 kts | 290° |
| 2026-05-07 17:09 | -37.55903 | 144.21752 | 17213 ft | 363 kts | 290° |
| 2026-05-07 17:10 | -37.54815 | 144.18871 | 17658 ft | 366 kts | 290° |
| 2026-05-07 17:10 | -37.54088 | 144.16945 | 17970 ft | 368 kts | 290° |
| 2026-05-07 17:10 | -37.52613 | 144.13044 | 18603 ft | 371 kts | 290° |
| 2026-05-07 17:10 | -37.51875 | 144.11095 | 18869 ft | 372 kts | 289° |
| 2026-05-07 17:11 | -37.50756 | 144.08141 | 19264 ft | 375 kts | 289° |
| 2026-05-07 17:11 | -37.49630 | 144.05169 | 19667 ft | 377 kts | 289° |
| 2026-05-07 17:11 | -37.48497 | 144.02183 | 20080 ft | 379 kts | 289° |
| 2026-05-07 17:11 | -37.47357 | 143.99182 | 20461 ft | 381 kts | 289° |
| 2026-05-07 17:12 | -37.46208 | 143.96159 | 20815 ft | 384 kts | 289° |
| 2026-05-07 17:12 | -37.45052 | 143.93121 | 21199 ft | 386 kts | 288° |
| 2026-05-07 17:12 | -37.43888 | 143.90064 | 21564 ft | 389 kts | 288° |
| 2026-05-07 17:12 | -37.42714 | 143.86986 | 21933 ft | 391 kts | 288° |
| 2026-05-07 17:13 | -37.41534 | 143.83896 | 22294 ft | 393 kts | 288° |
| 2026-05-07 17:13 | -37.40346 | 143.80788 | 22631 ft | 396 kts | 288° |
| 2026-05-07 17:13 | -37.39149 | 143.77656 | 23010 ft | 398 kts | 288° |
| 2026-05-07 17:13 | -37.37946 | 143.74515 | 23372 ft | 400 kts | 287° |
| 2026-05-07 17:14 | -37.36735 | 143.71354 | 23721 ft | 403 kts | 287° |
| 2026-05-07 17:14 | -37.35514 | 143.68169 | 23999 ft | 405 kts | 287° |
| 2026-05-07 17:14 | -37.34288 | 143.64982 | 24326 ft | 406 kts | 287° |
| 2026-05-07 17:14 | -37.33056 | 143.61779 | 24640 ft | 408 kts | 287° |
| 2026-05-07 17:15 | -37.31817 | 143.58558 | 24926 ft | 410 kts | 287° |
| 2026-05-07 17:15 | -37.30573 | 143.55328 | 25250 ft | 412 kts | 287° |
| 2026-05-07 17:15 | -37.29320 | 143.52078 | 25581 ft | 414 kts | 287° |
| 2026-05-07 17:15 | -37.28062 | 143.48818 | 25927 ft | 416 kts | 287° |
| 2026-05-07 17:16 | -37.26793 | 143.45535 | 26248 ft | 419 kts | 287° |
| 2026-05-07 17:16 | -37.25518 | 143.42236 | 26567 ft | 422 kts | 287° |
| 2026-05-07 17:16 | -37.24232 | 143.38918 | 26950 ft | 424 kts | 287° |
| 2026-05-07 17:16 | -37.22938 | 143.35580 | 27308 ft | 426 kts | 287° |
| 2026-05-07 17:17 | -37.21638 | 143.32227 | 27649 ft | 429 kts | 287° |
| 2026-05-07 17:17 | -37.20327 | 143.28851 | 28028 ft | 432 kts | 287° |
| 2026-05-07 17:17 | -37.19106 | 143.25414 | 28391 ft | 429 kts | 282° |
| 2026-05-07 17:17 | -37.18049 | 143.21903 | 28745 ft | 432 kts | 282° |
| 2026-05-07 17:18 | -37.16980 | 143.18364 | 29097 ft | 435 kts | 282° |
| 2026-05-07 17:18 | -37.15899 | 143.14804 | 29429 ft | 439 kts | 282° |
| 2026-05-07 17:18 | -37.14808 | 143.11222 | 29814 ft | 442 kts | 282° |
| 2026-05-07 17:18 | -37.13707 | 143.07612 | 30179 ft | 445 kts | 283° |
| 2026-05-07 17:19 | -37.12594 | 143.03974 | 30474 ft | 448 kts | 283° |
| 2026-05-07 17:19 | -37.11474 | 143.00322 | 30817 ft | 450 kts | 283° |
| 2026-05-07 17:19 | -37.10347 | 142.96657 | 31184 ft | 452 kts | 283° |
| 2026-05-07 17:19 | -37.09216 | 142.92979 | 31519 ft | 454 kts | 283° |
| 2026-05-07 17:20 | -37.08080 | 142.89289 | 31854 ft | 456 kts | 283° |
| 2026-05-07 17:20 | -37.06951 | 142.85626 | 32183 ft | 458 kts | 284° |
| 2026-05-07 17:20 | -37.05802 | 142.81904 | 32540 ft | 460 kts | 284° |
| 2026-05-07 17:20 | -37.04647 | 142.78168 | 32870 ft | 461 kts | 284° |
| 2026-05-07 17:21 | -37.03486 | 142.74414 | 33209 ft | 463 kts | 284° |
| 2026-05-07 17:21 | -37.02318 | 142.70644 | 33562 ft | 465 kts | 284° |
| 2026-05-07 17:21 | -37.01146 | 142.66870 | 34040 ft | 464 kts | 284° |
| 2026-05-07 17:21 | -36.99978 | 142.63119 | 34554 ft | 462 kts | 285° |
| 2026-05-07 17:22 | -36.98814 | 142.59382 | 34943 ft | 461 kts | 285° |
| 2026-05-07 17:22 | -36.97652 | 142.55649 | 35295 ft | 460 kts | 285° |
| 2026-05-07 17:22 | -36.96489 | 142.51920 | 35688 ft | 459 kts | 285° |
| 2026-05-07 17:22 | -36.95329 | 142.48206 | 36078 ft | 458 kts | 285° |
| 2026-05-07 17:23 | -36.94169 | 142.44496 | 36292 ft | 461 kts | 285° |
| 2026-05-07 17:23 | -36.92997 | 142.40745 | 36302 ft | 463 kts | 285° |
| 2026-05-07 17:23 | -36.90656 | 142.33290 | 36305 ft | 462 kts | 285° |
| 2026-05-07 17:24 | -36.88303 | 142.25807 | 36310 ft | 463 kts | 285° |
| 2026-05-07 17:24 | -36.85955 | 142.18362 | 36311 ft | 464 kts | 285° |
| 2026-05-07 17:25 | -36.83581 | 142.10852 | 36316 ft | 466 kts | 286° |
| 2026-05-07 17:25 | -36.81194 | 142.03324 | 36334 ft | 467 kts | 286° |
| 2026-05-07 17:26 | -36.78795 | 141.95778 | 36340 ft | 469 kts | 286° |
| 2026-05-07 17:26 | -36.76384 | 141.88213 | 36344 ft | 469 kts | 286° |
| 2026-05-07 17:27 | -36.73969 | 141.80655 | 36347 ft | 469 kts | 286° |
| 2026-05-07 17:27 | -36.71549 | 141.73103 | 36343 ft | 469 kts | 286° |
| 2026-05-07 17:28 | -36.69123 | 141.65550 | 36341 ft | 469 kts | 286° |
| 2026-05-07 17:28 | -36.66695 | 141.58010 | 36342 ft | 469 kts | 286° |
| 2026-05-07 17:29 | -36.64266 | 141.50486 | 36336 ft | 469 kts | 286° |
| 2026-05-07 17:29 | -36.61821 | 141.42933 | 36341 ft | 470 kts | 286° |
| 2026-05-07 17:30 | -36.59374 | 141.35393 | 36339 ft | 470 kts | 286° |
| 2026-05-07 17:30 | -36.58144 | 141.31617 | 36110 ft | 469 kts | 288° |
| 2026-05-07 17:30 | -36.56920 | 141.27872 | 36364 ft | 470 kts | 288° |
| 2026-05-07 17:31 | -36.54442 | 141.20283 | 36350 ft | 474 kts | 288° |
| 2026-05-07 17:31 | -36.51970 | 141.12700 | 36352 ft | 473 kts | 288° |
| 2026-05-07 17:32 | -36.49491 | 141.05133 | 36357 ft | 472 kts | 288° |
| 2026-05-07 17:32 | -36.47010 | 140.97584 | 36358 ft | 472 kts | 288° |
| 2026-05-07 17:33 | -36.44525 | 140.90045 | 36363 ft | 471 kts | 288° |
| 2026-05-07 17:33 | -36.42036 | 140.82511 | 36369 ft | 471 kts | 288° |
| 2026-05-07 17:34 | -36.39283 | 140.75118 | 36365 ft | 475 kts | 295° |
| 2026-05-07 17:34 | -36.35574 | 140.68285 | 36369 ft | 480 kts | 304° |
| 2026-05-07 17:35 | -36.31428 | 140.61798 | 36371 ft | 480 kts | 303° |
| 2026-05-07 17:35 | -36.27312 | 140.55290 | 36376 ft | 479 kts | 303° |
| 2026-05-07 17:36 | -36.23189 | 140.48794 | 36376 ft | 479 kts | 304° |
| 2026-05-07 17:36 | -36.19065 | 140.42314 | 36379 ft | 479 kts | 304° |
| 2026-05-07 17:37 | -36.14935 | 140.35837 | 36379 ft | 479 kts | 304° |
| 2026-05-07 17:37 | -36.10803 | 140.29371 | 36380 ft | 479 kts | 304° |
| 2026-05-07 17:38 | -36.06693 | 140.22950 | 36375 ft | 479 kts | 304° |
| 2026-05-07 17:38 | -36.02547 | 140.16487 | 36377 ft | 480 kts | 304° |
| 2026-05-07 17:39 | -35.98396 | 140.10026 | 36386 ft | 480 kts | 304° |
| 2026-05-07 17:39 | -35.94238 | 140.03567 | 36391 ft | 481 kts | 304° |
| 2026-05-07 17:40 | -35.90069 | 139.97104 | 36392 ft | 482 kts | 304° |
| 2026-05-07 17:40 | -35.85892 | 139.90639 | 36398 ft | 482 kts | 304° |
| 2026-05-07 17:41 | -35.81704 | 139.84171 | 36397 ft | 483 kts | 305° |
| 2026-05-07 17:41 | -35.77511 | 139.77707 | 36405 ft | 483 kts | 305° |
| 2026-05-07 17:42 | -35.73310 | 139.71243 | 36406 ft | 484 kts | 305° |
| 2026-05-07 17:42 | -35.69106 | 139.64785 | 36406 ft | 484 kts | 305° |
| 2026-05-07 17:43 | -35.64890 | 139.58323 | 36414 ft | 485 kts | 305° |
| 2026-05-07 17:43 | -35.60666 | 139.51860 | 36415 ft | 485 kts | 306° |
| 2026-05-07 17:44 | -35.56437 | 139.45401 | 36413 ft | 485 kts | 306° |
| 2026-05-07 17:44 | -35.52202 | 139.38945 | 36409 ft | 485 kts | 306° |
| 2026-05-07 17:45 | -35.47964 | 139.32497 | 36407 ft | 485 kts | 306° |
| 2026-05-07 17:45 | -35.43723 | 139.26056 | 36405 ft | 486 kts | 306° |
| 2026-05-07 17:46 | -35.39477 | 139.19619 | 36408 ft | 486 kts | 306° |
| 2026-05-07 17:46 | -35.35226 | 139.13187 | 36412 ft | 486 kts | 306° |
| 2026-05-07 17:47 | -35.30968 | 139.06758 | 36423 ft | 486 kts | 306° |
| 2026-05-07 17:47 | -35.26709 | 139.00337 | 36432 ft | 486 kts | 306° |
| 2026-05-07 17:48 | -35.22435 | 138.93907 | 36435 ft | 487 kts | 306° |
| 2026-05-07 17:48 | -35.18162 | 138.87490 | 36430 ft | 487 kts | 307° |
| 2026-05-07 17:49 | -35.13880 | 138.81071 | 36439 ft | 487 kts | 307° |
| 2026-05-07 17:49 | -35.09589 | 138.74650 | 36437 ft | 488 kts | 307° |
| 2026-05-07 17:50 | -35.05296 | 138.68239 | 36434 ft | 488 kts | 307° |
| 2026-05-07 17:50 | -35.00998 | 138.61831 | 36430 ft | 488 kts | 307° |
| 2026-05-07 17:51 | -34.96697 | 138.55430 | 36429 ft | 488 kts | 307° |
| 2026-05-07 17:51 | -34.92688 | 138.48851 | 36426 ft | 486 kts | 301° |
| 2026-05-07 17:52 | -34.88931 | 138.41987 | 36424 ft | 487 kts | 301° |
| 2026-05-07 17:52 | -34.85153 | 138.35138 | 36429 ft | 487 kts | 302° |
| 2026-05-07 17:53 | -34.81368 | 138.28292 | 36439 ft | 488 kts | 302° |
| 2026-05-07 17:53 | -34.77570 | 138.21437 | 36445 ft | 489 kts | 302° |
| 2026-05-07 17:54 | -34.73766 | 138.14583 | 36455 ft | 489 kts | 302° |
| 2026-05-07 17:54 | -34.69952 | 138.07727 | 36458 ft | 490 kts | 302° |
| 2026-05-07 17:55 | -34.66134 | 138.00874 | 36464 ft | 490 kts | 302° |
| 2026-05-07 17:55 | -34.62308 | 137.94021 | 36467 ft | 490 kts | 302° |
| 2026-05-07 17:56 | -34.58477 | 137.87172 | 36469 ft | 490 kts | 302° |
| 2026-05-07 17:56 | -34.54640 | 137.80327 | 36469 ft | 490 kts | 302° |
| 2026-05-07 17:57 | -34.51452 | 137.74647 | 36470 ft | 490 kts | 302° |
| 2026-05-07 17:57 | -34.46960 | 137.66661 | 36470 ft | 490 kts | 302° |
| 2026-05-07 17:58 | -34.43763 | 137.60989 | 36470 ft | 490 kts | 302° |
| 2026-05-07 17:58 | -34.39916 | 137.54175 | 36471 ft | 490 kts | 302° |
| 2026-05-07 17:59 | -34.36060 | 137.47359 | 36474 ft | 490 kts | 302° |
| 2026-05-07 17:59 | -34.32203 | 137.40552 | 36471 ft | 491 kts | 302° |
| 2026-05-07 18:00 | -34.28337 | 137.33743 | 36473 ft | 491 kts | 302° |
| 2026-05-07 18:00 | -34.24467 | 137.26941 | 36475 ft | 491 kts | 302° |
| 2026-05-07 18:01 | -34.20591 | 137.20147 | 36472 ft | 491 kts | 302° |
| 2026-05-07 18:01 | -34.16715 | 137.13360 | 36468 ft | 491 kts | 303° |
| 2026-05-07 18:02 | -34.10886 | 137.03169 | 36473 ft | 492 kts | 303° |
| 2026-05-07 18:03 | -34.06991 | 136.96378 | 36477 ft | 492 kts | 303° |
| 2026-05-07 18:03 | -34.03119 | 136.89643 | 36482 ft | 492 kts | 303° |
| 2026-05-07 18:04 | -33.99216 | 136.82865 | 36492 ft | 492 kts | 303° |
| 2026-05-07 18:04 | -33.95309 | 136.76093 | 36484 ft | 492 kts | 303° |
| 2026-05-07 18:05 | -33.91399 | 136.69331 | 36493 ft | 492 kts | 303° |
| 2026-05-07 18:05 | -33.87487 | 136.62575 | 36496 ft | 491 kts | 303° |
| 2026-05-07 18:06 | -33.83577 | 136.55837 | 36496 ft | 491 kts | 304° |
| 2026-05-07 18:06 | -33.79666 | 136.49109 | 36491 ft | 491 kts | 304° |
| 2026-05-07 18:07 | -33.75755 | 136.42392 | 36494 ft | 490 kts | 304° |
| 2026-05-07 18:07 | -33.71841 | 136.35684 | 36498 ft | 490 kts | 304° |
| 2026-05-07 18:08 | -33.67925 | 136.28984 | 36502 ft | 490 kts | 304° |
| 2026-05-07 18:08 | -33.64001 | 136.22284 | 36504 ft | 490 kts | 304° |
| 2026-05-07 18:09 | -33.60077 | 136.15594 | 36507 ft | 490 kts | 304° |
| 2026-05-07 18:09 | -33.56144 | 136.08904 | 36509 ft | 490 kts | 304° |
| 2026-05-07 18:10 | -33.52211 | 136.02223 | 36512 ft | 491 kts | 304° |
| 2026-05-07 18:10 | -33.48273 | 135.95548 | 36510 ft | 491 kts | 304° |
| 2026-05-07 18:11 | -33.44332 | 135.88878 | 36511 ft | 490 kts | 304° |
| 2026-05-07 18:11 | -33.40395 | 135.82205 | 36511 ft | 490 kts | 304° |
| 2026-05-07 18:12 | -33.36472 | 135.75535 | 36513 ft | 490 kts | 304° |
| 2026-05-07 18:12 | -33.32540 | 135.68869 | 36510 ft | 490 kts | 304° |
| 2026-05-07 18:13 | -33.28607 | 135.62214 | 36511 ft | 490 kts | 304° |
| 2026-05-07 18:13 | -33.24671 | 135.55568 | 36513 ft | 490 kts | 304° |
| 2026-05-07 18:14 | -33.20728 | 135.48921 | 36508 ft | 490 kts | 304° |
| 2026-05-07 18:14 | -33.16817 | 135.42340 | 36513 ft | 490 kts | 305° |
| 2026-05-07 18:15 | -33.12867 | 135.35705 | 36514 ft | 490 kts | 305° |
| 2026-05-07 18:15 | -33.08917 | 135.29083 | 36517 ft | 490 kts | 305° |
| 2026-05-07 18:16 | -33.04968 | 135.22473 | 36516 ft | 490 kts | 305° |
| 2026-05-07 18:16 | -33.01011 | 135.15862 | 36517 ft | 490 kts | 305° |
| 2026-05-07 18:17 | -32.97044 | 135.09271 | 36515 ft | 490 kts | 305° |
| 2026-05-07 18:17 | -32.93048 | 135.02704 | 36521 ft | 490 kts | 306° |
| 2026-05-07 18:18 | -32.89050 | 134.96137 | 36517 ft | 490 kts | 306° |
| 2026-05-07 18:18 | -32.85056 | 134.89580 | 36519 ft | 489 kts | 306° |
| 2026-05-07 18:19 | -32.81055 | 134.83026 | 36515 ft | 490 kts | 306° |
| 2026-05-07 18:19 | -32.77051 | 134.76479 | 36523 ft | 490 kts | 306° |
| 2026-05-07 18:20 | -32.73048 | 134.69944 | 36525 ft | 489 kts | 306° |
| 2026-05-07 18:20 | -32.69039 | 134.63410 | 36514 ft | 489 kts | 306° |
| 2026-05-07 18:21 | -32.65024 | 134.56879 | 36517 ft | 489 kts | 306° |
| 2026-05-07 18:21 | -32.61009 | 134.50359 | 36523 ft | 489 kts | 306° |
| 2026-05-07 18:22 | -32.57018 | 134.43889 | 36515 ft | 489 kts | 306° |
| 2026-05-07 18:22 | -32.52999 | 134.37385 | 36514 ft | 489 kts | 306° |
| 2026-05-07 18:23 | -32.48978 | 134.30887 | 36523 ft | 489 kts | 306° |
| 2026-05-07 18:23 | -32.44951 | 134.24392 | 36515 ft | 489 kts | 306° |
| 2026-05-07 18:24 | -32.40926 | 134.17912 | 36525 ft | 489 kts | 306° |
| 2026-05-07 18:24 | -32.36898 | 134.11437 | 36514 ft | 489 kts | 306° |
| 2026-05-07 18:25 | -32.32863 | 134.04963 | 36515 ft | 489 kts | 306° |
| 2026-05-07 18:25 | -32.28828 | 133.98499 | 36518 ft | 488 kts | 306° |
| 2026-05-07 18:26 | -32.24793 | 133.92047 | 36513 ft | 488 kts | 306° |
| 2026-05-07 18:26 | -32.20752 | 133.85596 | 36513 ft | 488 kts | 306° |
| 2026-05-07 18:27 | -32.16709 | 133.79153 | 36519 ft | 488 kts | 306° |
| 2026-05-07 18:27 | -32.12667 | 133.72720 | 36518 ft | 488 kts | 306° |
| 2026-05-07 18:28 | -32.08575 | 133.66341 | 36517 ft | 488 kts | 307° |
| 2026-05-07 18:28 | -32.04454 | 133.59995 | 36520 ft | 487 kts | 307° |
| 2026-05-07 18:29 | -32.00372 | 133.53697 | 36526 ft | 487 kts | 307° |
| 2026-05-07 18:29 | -31.96264 | 133.47361 | 36515 ft | 486 kts | 307° |
| 2026-05-07 18:30 | -31.92158 | 133.41039 | 36521 ft | 486 kts | 307° |
| 2026-05-07 18:30 | -31.88052 | 133.34727 | 36524 ft | 485 kts | 307° |
| 2026-05-07 18:31 | -31.83946 | 133.28426 | 36518 ft | 485 kts | 307° |
| 2026-05-07 18:31 | -31.79836 | 133.22129 | 36536 ft | 487 kts | 307° |
| 2026-05-07 18:31 | -31.77773 | 133.18972 | 36895 ft | 487 kts | 307° |
| 2026-05-07 18:32 | -31.75711 | 133.15820 | 37321 ft | 486 kts | 307° |
| 2026-05-07 18:32 | -31.73653 | 133.12675 | 37718 ft | 485 kts | 307° |
| 2026-05-07 18:32 | -31.71600 | 133.09543 | 38105 ft | 484 kts | 307° |
| 2026-05-07 18:32 | -31.69545 | 133.06408 | 38451 ft | 484 kts | 307° |
| 2026-05-07 18:33 | -31.67481 | 133.03262 | 38528 ft | 490 kts | 307° |
| 2026-05-07 18:33 | -31.63271 | 132.96854 | 38523 ft | 498 kts | 307° |
| 2026-05-07 18:34 | -31.59039 | 132.90423 | 38520 ft | 498 kts | 307° |
| 2026-05-07 18:34 | -31.54804 | 132.84000 | 38523 ft | 498 kts | 307° |
| 2026-05-07 18:35 | -31.50570 | 132.77586 | 38523 ft | 498 kts | 307° |
| 2026-05-07 18:35 | -31.46333 | 132.71181 | 38523 ft | 497 kts | 307° |
| 2026-05-07 18:36 | -31.42092 | 132.64779 | 38523 ft | 497 kts | 307° |
| 2026-05-07 18:36 | -31.37848 | 132.58384 | 38524 ft | 497 kts | 307° |
| 2026-05-07 18:37 | -31.33603 | 132.51996 | 38522 ft | 497 kts | 307° |
| 2026-05-07 18:37 | -31.29351 | 132.45610 | 38523 ft | 497 kts | 307° |
| 2026-05-07 18:38 | -31.25104 | 132.39242 | 38522 ft | 497 kts | 307° |
| 2026-05-07 18:38 | -31.20848 | 132.32870 | 38520 ft | 497 kts | 307° |
| 2026-05-07 18:39 | -31.16621 | 132.26552 | 38522 ft | 497 kts | 307° |
| 2026-05-07 18:39 | -31.12363 | 132.20199 | 38523 ft | 497 kts | 307° |
| 2026-05-07 18:40 | -31.08105 | 132.13855 | 38523 ft | 496 kts | 307° |
| 2026-05-07 18:40 | -31.03846 | 132.07520 | 38521 ft | 496 kts | 307° |
| 2026-05-07 18:41 | -30.99583 | 132.01189 | 38516 ft | 496 kts | 307° |
| 2026-05-07 18:41 | -30.95321 | 131.94870 | 38523 ft | 496 kts | 307° |
| 2026-05-07 18:42 | -30.91052 | 131.88551 | 38521 ft | 496 kts | 307° |
| 2026-05-07 18:42 | -30.86788 | 131.82248 | 38520 ft | 496 kts | 307° |
| 2026-05-07 18:43 | -30.82512 | 131.75951 | 38523 ft | 495 kts | 308° |
| 2026-05-07 18:43 | -30.78232 | 131.69675 | 38525 ft | 495 kts | 307° |
| 2026-05-07 18:44 | -30.73950 | 131.63393 | 38524 ft | 495 kts | 307° |
| 2026-05-07 18:44 | -30.69671 | 131.57124 | 38523 ft | 495 kts | 308° |
| 2026-05-07 18:45 | -30.65387 | 131.50861 | 38523 ft | 495 kts | 308° |
| 2026-05-07 18:45 | -30.61129 | 131.44646 | 38524 ft | 495 kts | 308° |
| 2026-05-07 18:46 | -30.56841 | 131.38397 | 38522 ft | 494 kts | 308° |
| 2026-05-07 18:46 | -30.52552 | 131.32157 | 38523 ft | 494 kts | 308° |
| 2026-05-07 18:47 | -30.48957 | 131.26933 | 38523 ft | 495 kts | 308° |
| 2026-05-07 18:47 | -30.44664 | 131.20705 | 38523 ft | 494 kts | 308° |
| 2026-05-07 18:48 | -30.40368 | 131.14483 | 38521 ft | 494 kts | 308° |
| 2026-05-07 18:48 | -30.36101 | 131.08312 | 38521 ft | 494 kts | 308° |
| 2026-05-07 18:49 | -30.31777 | 131.02067 | 38525 ft | 494 kts | 308° |
| 2026-05-07 18:49 | -30.27474 | 130.95863 | 38522 ft | 494 kts | 308° |
| 2026-05-07 18:50 | -30.23174 | 130.89673 | 38522 ft | 493 kts | 308° |
| 2026-05-07 18:50 | -30.18870 | 130.83488 | 38519 ft | 493 kts | 308° |
| 2026-05-07 18:51 | -30.14566 | 130.77312 | 38521 ft | 493 kts | 308° |
| 2026-05-07 18:51 | -30.10289 | 130.71183 | 38521 ft | 493 kts | 308° |
| 2026-05-07 18:52 | -30.05978 | 130.65016 | 38523 ft | 493 kts | 308° |
| 2026-05-07 18:52 | -30.01668 | 130.58859 | 38522 ft | 493 kts | 308° |
| 2026-05-07 18:53 | -29.97356 | 130.52710 | 38517 ft | 493 kts | 308° |
| 2026-05-07 18:53 | -29.93041 | 130.46564 | 38524 ft | 493 kts | 308° |
| 2026-05-07 18:54 | -29.88722 | 130.40423 | 38520 ft | 493 kts | 308° |
| 2026-05-07 18:54 | -29.84402 | 130.34290 | 38520 ft | 493 kts | 308° |
| 2026-05-07 18:55 | -29.80084 | 130.28168 | 38520 ft | 493 kts | 308° |
| 2026-05-07 18:55 | -29.75759 | 130.22047 | 38516 ft | 493 kts | 308° |
| 2026-05-07 18:56 | -29.71434 | 130.15934 | 38516 ft | 493 kts | 308° |
| 2026-05-07 18:56 | -29.67104 | 130.09824 | 38514 ft | 493 kts | 308° |
| 2026-05-07 18:57 | -29.62772 | 130.03720 | 38517 ft | 493 kts | 308° |
| 2026-05-07 18:57 | -29.58439 | 129.97625 | 38510 ft | 492 kts | 308° |
| 2026-05-07 18:58 | -29.54105 | 129.91535 | 38514 ft | 492 kts | 308° |
| 2026-05-07 18:58 | -29.49764 | 129.85447 | 38513 ft | 492 kts | 308° |
| 2026-05-07 18:59 | -29.45395 | 129.79327 | 38516 ft | 493 kts | 308° |
| 2026-05-07 18:59 | -29.41051 | 129.73252 | 38512 ft | 492 kts | 308° |
| 2026-05-07 19:00 | -29.36734 | 129.67223 | 38509 ft | 492 kts | 308° |
| 2026-05-07 19:00 | -29.32359 | 129.61122 | 38510 ft | 492 kts | 308° |
| 2026-05-07 19:01 | -29.28007 | 129.55063 | 38508 ft | 492 kts | 308° |
| 2026-05-07 19:01 | -29.23680 | 129.49048 | 38510 ft | 492 kts | 308° |
| 2026-05-07 19:02 | -29.19318 | 129.42993 | 38504 ft | 494 kts | 308° |
| 2026-05-07 19:02 | -29.14946 | 129.36934 | 38505 ft | 492 kts | 308° |
| 2026-05-07 19:03 | -29.10585 | 129.30897 | 38505 ft | 492 kts | 308° |
| 2026-05-07 19:03 | -29.06223 | 129.24870 | 38509 ft | 492 kts | 308° |
| 2026-05-07 19:04 | -29.01860 | 129.18848 | 38506 ft | 492 kts | 308° |
| 2026-05-07 19:04 | -28.97494 | 129.12832 | 38505 ft | 492 kts | 308° |
| 2026-05-07 19:05 | -28.93126 | 129.06818 | 38507 ft | 492 kts | 308° |
| 2026-05-07 19:05 | -28.88752 | 129.00803 | 38504 ft | 492 kts | 308° |
| 2026-05-07 19:06 | -28.84375 | 128.94797 | 38503 ft | 492 kts | 308° |
| 2026-05-07 19:06 | -28.77809 | 128.85792 | 38500 ft | 492 kts | 308° |
| 2026-05-07 19:07 | -28.73427 | 128.79791 | 38497 ft | 492 kts | 308° |
| 2026-05-07 19:07 | -28.69043 | 128.73796 | 38497 ft | 492 kts | 308° |
| 2026-05-07 19:08 | -28.64660 | 128.67810 | 38497 ft | 492 kts | 308° |
| 2026-05-07 19:08 | -28.60268 | 128.61823 | 38496 ft | 492 kts | 308° |
| 2026-05-07 19:09 | -28.55876 | 128.55843 | 38497 ft | 493 kts | 308° |
| 2026-05-07 19:09 | -28.51482 | 128.49870 | 38494 ft | 492 kts | 308° |
| 2026-05-07 19:10 | -28.47084 | 128.43898 | 38488 ft | 493 kts | 308° |
| 2026-05-07 19:10 | -28.42683 | 128.37933 | 38487 ft | 493 kts | 308° |
| 2026-05-07 19:11 | -28.38277 | 128.31969 | 38491 ft | 493 kts | 308° |
| 2026-05-07 19:11 | -28.33870 | 128.26011 | 38485 ft | 493 kts | 308° |
| 2026-05-07 19:12 | -28.29461 | 128.20059 | 38485 ft | 493 kts | 308° |
| 2026-05-07 19:12 | -28.25047 | 128.14110 | 38485 ft | 493 kts | 308° |
| 2026-05-07 19:13 | -28.20632 | 128.08167 | 38483 ft | 492 kts | 308° |
| 2026-05-07 19:13 | -28.16215 | 128.02230 | 38483 ft | 492 kts | 308° |
| 2026-05-07 19:14 | -28.11796 | 127.96297 | 38474 ft | 492 kts | 308° |
| 2026-05-07 19:14 | -28.07375 | 127.90372 | 38474 ft | 492 kts | 308° |
| 2026-05-07 19:15 | -28.02950 | 127.84449 | 38469 ft | 492 kts | 308° |
| 2026-05-07 19:15 | -27.98522 | 127.78530 | 38467 ft | 492 kts | 308° |
| 2026-05-07 19:16 | -27.94090 | 127.72614 | 38472 ft | 492 kts | 308° |
| 2026-05-07 19:16 | -27.89661 | 127.66711 | 38466 ft | 492 kts | 308° |
| 2026-05-07 19:17 | -27.85226 | 127.60806 | 38471 ft | 493 kts | 308° |
| 2026-05-07 19:17 | -27.80786 | 127.54905 | 38467 ft | 493 kts | 308° |
| 2026-05-07 19:18 | -27.76344 | 127.49009 | 38465 ft | 493 kts | 308° |
| 2026-05-07 19:18 | -27.71900 | 127.43118 | 38464 ft | 493 kts | 308° |
| 2026-05-07 19:19 | -27.67453 | 127.37230 | 38462 ft | 493 kts | 308° |
| 2026-05-07 19:19 | -27.63003 | 127.31348 | 38458 ft | 493 kts | 308° |
| 2026-05-07 19:20 | -27.58577 | 127.25505 | 38455 ft | 493 kts | 308° |
| 2026-05-07 19:20 | -27.54123 | 127.19633 | 38461 ft | 493 kts | 308° |
| 2026-05-07 19:21 | -27.49665 | 127.13764 | 38455 ft | 493 kts | 308° |
| 2026-05-07 19:21 | -27.45204 | 127.07898 | 38451 ft | 493 kts | 308° |
| 2026-05-07 19:22 | -27.40743 | 127.02041 | 38451 ft | 493 kts | 308° |
| 2026-05-07 19:22 | -27.36278 | 126.96187 | 38447 ft | 493 kts | 308° |
| 2026-05-07 19:23 | -27.31813 | 126.90336 | 38448 ft | 493 kts | 308° |
| 2026-05-07 19:23 | -27.27339 | 126.84499 | 38444 ft | 493 kts | 308° |
| 2026-05-07 19:24 | -27.22858 | 126.78662 | 38429 ft | 493 kts | 308° |
| 2026-05-07 19:24 | -27.18386 | 126.72835 | 38448 ft | 493 kts | 308° |
| 2026-05-07 19:25 | -27.13912 | 126.67010 | 38451 ft | 492 kts | 308° |
| 2026-05-07 19:25 | -27.09438 | 126.61197 | 38440 ft | 492 kts | 308° |
| 2026-05-07 19:26 | -27.04961 | 126.55389 | 38435 ft | 492 kts | 308° |
| 2026-05-07 19:26 | -27.00481 | 126.49585 | 38423 ft | 492 kts | 308° |
| 2026-05-07 19:27 | -26.96005 | 126.43793 | 38423 ft | 491 kts | 307° |
| 2026-05-07 19:27 | -26.91556 | 126.38045 | 38427 ft | 491 kts | 307° |
| 2026-05-07 19:28 | -26.87080 | 126.32270 | 38420 ft | 491 kts | 307° |
| 2026-05-07 19:28 | -26.82603 | 126.26499 | 38417 ft | 490 kts | 307° |
| 2026-05-07 19:29 | -26.78127 | 126.20738 | 38417 ft | 490 kts | 307° |
| 2026-05-07 19:29 | -26.73653 | 126.14988 | 38413 ft | 490 kts | 307° |
| 2026-05-07 19:30 | -26.69182 | 126.09248 | 38414 ft | 489 kts | 307° |
| 2026-05-07 19:30 | -26.65464 | 126.04482 | 38411 ft | 489 kts | 307° |
| 2026-05-07 19:31 | -26.60997 | 125.98762 | 38405 ft | 488 kts | 307° |
| 2026-05-07 19:31 | -26.56572 | 125.93103 | 38410 ft | 488 kts | 307° |
| 2026-05-07 19:32 | -26.52109 | 125.87401 | 38402 ft | 487 kts | 307° |
| 2026-05-07 19:32 | -26.47646 | 125.81707 | 38403 ft | 487 kts | 307° |
| 2026-05-07 19:33 | -26.43182 | 125.76020 | 38401 ft | 487 kts | 307° |
| 2026-05-07 19:33 | -26.38725 | 125.70348 | 38395 ft | 486 kts | 307° |
| 2026-05-07 19:34 | -26.34266 | 125.64682 | 38394 ft | 486 kts | 307° |
| 2026-05-07 19:34 | -26.29810 | 125.59027 | 38397 ft | 485 kts | 307° |
| 2026-05-07 19:35 | -26.25362 | 125.53388 | 38388 ft | 485 kts | 307° |
| 2026-05-07 19:35 | -26.20906 | 125.47748 | 38387 ft | 484 kts | 307° |
| 2026-05-07 19:36 | -26.16458 | 125.42122 | 38378 ft | 484 kts | 307° |
| 2026-05-07 19:36 | -26.12009 | 125.36504 | 38370 ft | 483 kts | 307° |
| 2026-05-07 19:37 | -26.07565 | 125.30900 | 38377 ft | 483 kts | 307° |
| 2026-05-07 19:37 | -26.03121 | 125.25301 | 38388 ft | 483 kts | 307° |
| 2026-05-07 19:38 | -25.98677 | 125.19709 | 38375 ft | 482 kts | 307° |
| 2026-05-07 19:38 | -25.94237 | 125.14131 | 38377 ft | 482 kts | 307° |
| 2026-05-07 19:39 | -25.89825 | 125.08594 | 38373 ft | 482 kts | 306° |
| 2026-05-07 19:39 | -25.85385 | 125.03028 | 38371 ft | 481 kts | 306° |
| 2026-05-07 19:40 | -25.80945 | 124.97470 | 38369 ft | 481 kts | 306° |
| 2026-05-07 19:40 | -25.76503 | 124.91916 | 38363 ft | 481 kts | 306° |
| 2026-05-07 19:41 | -25.72062 | 124.86370 | 38365 ft | 480 kts | 306° |
| 2026-05-07 19:41 | -25.67626 | 124.80835 | 38371 ft | 480 kts | 306° |
| 2026-05-07 19:42 | -25.63189 | 124.75308 | 38370 ft | 480 kts | 306° |
| 2026-05-07 19:42 | -25.58749 | 124.69783 | 38362 ft | 480 kts | 306° |
| 2026-05-07 19:43 | -25.54310 | 124.64265 | 38361 ft | 479 kts | 306° |
| 2026-05-07 19:43 | -25.49874 | 124.58760 | 38359 ft | 479 kts | 306° |
| 2026-05-07 19:44 | -25.45440 | 124.53263 | 38355 ft | 478 kts | 306° |
| 2026-05-07 19:44 | -25.41007 | 124.47773 | 38349 ft | 478 kts | 306° |
| 2026-05-07 19:45 | -25.36578 | 124.42295 | 38350 ft | 478 kts | 306° |
| 2026-05-07 19:45 | -25.32149 | 124.36823 | 38347 ft | 477 kts | 306° |
| 2026-05-07 19:46 | -25.27719 | 124.31356 | 38342 ft | 477 kts | 306° |
| 2026-05-07 19:46 | -25.23291 | 124.25899 | 38342 ft | 477 kts | 306° |
| 2026-05-07 19:47 | -25.18868 | 124.20454 | 38337 ft | 476 kts | 306° |
| 2026-05-07 19:47 | -25.14447 | 124.15018 | 38342 ft | 475 kts | 306° |
| 2026-05-07 19:48 | -25.10033 | 124.09597 | 38343 ft | 475 kts | 306° |
| 2026-05-07 19:48 | -25.05617 | 124.04181 | 38336 ft | 474 kts | 306° |
| 2026-05-07 19:49 | -25.01235 | 123.98811 | 38334 ft | 474 kts | 306° |
| 2026-05-07 19:49 | -24.96822 | 123.93410 | 38328 ft | 474 kts | 306° |
| 2026-05-07 19:50 | -24.92412 | 123.88019 | 38331 ft | 473 kts | 306° |
| 2026-05-07 19:50 | -24.88007 | 123.82640 | 38329 ft | 473 kts | 306° |
| 2026-05-07 19:51 | -24.83602 | 123.77268 | 38327 ft | 472 kts | 306° |
| 2026-05-07 19:51 | -24.79203 | 123.71909 | 38327 ft | 472 kts | 306° |
| 2026-05-07 19:52 | -24.74800 | 123.66550 | 38324 ft | 471 kts | 306° |
| 2026-05-07 19:52 | -24.70404 | 123.61208 | 38320 ft | 471 kts | 305° |
| 2026-05-07 19:53 | -24.66006 | 123.55867 | 38311 ft | 471 kts | 305° |
| 2026-05-07 19:53 | -24.61608 | 123.50534 | 38326 ft | 470 kts | 305° |
| 2026-05-07 19:54 | -24.57224 | 123.45224 | 38312 ft | 470 kts | 305° |
| 2026-05-07 19:54 | -24.52836 | 123.39915 | 38317 ft | 469 kts | 305° |
| 2026-05-07 19:55 | -24.48451 | 123.34613 | 38316 ft | 468 kts | 305° |
| 2026-05-07 19:55 | -24.44077 | 123.29328 | 38313 ft | 468 kts | 305° |
| 2026-05-07 19:56 | -24.39426 | 123.24269 | 38308 ft | 475 kts | 311° |
| 2026-05-07 19:56 | -24.34101 | 123.19875 | 38302 ft | 482 kts | 317° |
| 2026-05-07 19:57 | -24.28630 | 123.15658 | 38302 ft | 480 kts | 316° |
| 2026-05-07 19:57 | -24.23172 | 123.11420 | 38303 ft | 480 kts | 316° |
| 2026-05-07 19:58 | -24.17721 | 123.07192 | 38298 ft | 480 kts | 316° |
| 2026-05-07 19:58 | -24.12281 | 123.02978 | 38300 ft | 479 kts | 316° |
| 2026-05-07 19:59 | -24.06840 | 122.98769 | 38293 ft | 479 kts | 316° |
| 2026-05-07 19:59 | -24.01399 | 122.94564 | 38292 ft | 478 kts | 316° |
| 2026-05-07 20:00 | -23.95964 | 122.90368 | 38310 ft | 478 kts | 316° |
| 2026-05-07 20:00 | -23.90530 | 122.86180 | 38297 ft | 477 kts | 316° |
| 2026-05-07 20:01 | -23.85104 | 122.82002 | 38286 ft | 477 kts | 316° |
| 2026-05-07 20:01 | -23.79681 | 122.77831 | 38281 ft | 477 kts | 316° |
| 2026-05-07 20:02 | -23.74259 | 122.73664 | 38278 ft | 476 kts | 316° |
| 2026-05-07 20:02 | -23.68839 | 122.69505 | 38279 ft | 476 kts | 316° |
| 2026-05-07 20:03 | -23.63432 | 122.65360 | 38277 ft | 475 kts | 316° |
| 2026-05-07 20:03 | -23.58026 | 122.61219 | 38277 ft | 474 kts | 315° |
| 2026-05-07 20:04 | -23.52630 | 122.57090 | 38273 ft | 474 kts | 315° |
| 2026-05-07 20:04 | -23.47234 | 122.52966 | 38274 ft | 473 kts | 315° |
| 2026-05-07 20:05 | -23.41843 | 122.48849 | 38273 ft | 473 kts | 315° |
| 2026-05-07 20:05 | -23.36460 | 122.44743 | 38265 ft | 473 kts | 315° |
| 2026-05-07 20:06 | -23.31070 | 122.40636 | 38264 ft | 473 kts | 315° |
| 2026-05-07 20:06 | -23.25689 | 122.36540 | 38266 ft | 472 kts | 315° |
| 2026-05-07 20:07 | -23.20305 | 122.32445 | 38261 ft | 472 kts | 315° |
| 2026-05-07 20:07 | -23.14926 | 122.28358 | 38259 ft | 472 kts | 315° |
| 2026-05-07 20:08 | -23.09549 | 122.24277 | 38262 ft | 471 kts | 315° |
| 2026-05-07 20:08 | -23.04173 | 122.20201 | 38255 ft | 471 kts | 315° |
| 2026-05-07 20:09 | -22.98798 | 122.16129 | 38255 ft | 471 kts | 315° |
| 2026-05-07 20:10 | -22.90740 | 122.10033 | 38252 ft | 471 kts | 315° |
| 2026-05-07 20:10 | -22.85367 | 122.05973 | 38267 ft | 471 kts | 315° |
| 2026-05-07 20:11 | -22.79994 | 122.01917 | 38257 ft | 470 kts | 315° |
| 2026-05-07 20:11 | -22.74623 | 121.97867 | 38251 ft | 470 kts | 315° |
| 2026-05-07 20:12 | -22.69252 | 121.93821 | 38249 ft | 470 kts | 315° |
| 2026-05-07 20:12 | -22.63884 | 121.89779 | 38246 ft | 470 kts | 315° |
| 2026-05-07 20:13 | -22.58514 | 121.85742 | 38246 ft | 470 kts | 315° |
| 2026-05-07 20:13 | -22.53140 | 121.81705 | 38238 ft | 470 kts | 315° |
| 2026-05-07 20:14 | -22.48679 | 121.78357 | 38246 ft | 470 kts | 315° |
| 2026-05-07 20:14 | -22.43309 | 121.74329 | 38238 ft | 470 kts | 315° |
| 2026-05-07 20:15 | -22.37937 | 121.70306 | 38239 ft | 470 kts | 315° |
| 2026-05-07 20:15 | -22.32555 | 121.66277 | 38232 ft | 470 kts | 315° |
| 2026-05-07 20:16 | -22.27182 | 121.62260 | 38234 ft | 470 kts | 315° |
| 2026-05-07 20:16 | -22.21807 | 121.58244 | 38230 ft | 470 kts | 315° |
| 2026-05-07 20:17 | -22.16427 | 121.54230 | 38226 ft | 470 kts | 315° |
| 2026-05-07 20:17 | -22.11053 | 121.50223 | 38242 ft | 469 kts | 315° |
| 2026-05-07 20:18 | -22.05676 | 121.46217 | 38214 ft | 469 kts | 315° |
| 2026-05-07 20:18 | -22.00302 | 121.42218 | 38218 ft | 470 kts | 315° |
| 2026-05-07 20:19 | -21.94919 | 121.38215 | 38222 ft | 470 kts | 315° |
| 2026-05-07 20:19 | -21.89541 | 121.34220 | 38216 ft | 470 kts | 315° |
| 2026-05-07 20:20 | -21.84160 | 121.30227 | 38211 ft | 470 kts | 315° |
| 2026-05-07 20:20 | -21.78779 | 121.26236 | 38209 ft | 470 kts | 315° |
| 2026-05-07 20:21 | -21.73391 | 121.22246 | 38212 ft | 470 kts | 315° |
| 2026-05-07 20:21 | -21.68002 | 121.18259 | 38205 ft | 470 kts | 315° |
| 2026-05-07 20:22 | -21.62616 | 121.14276 | 38205 ft | 470 kts | 315° |
| 2026-05-07 20:22 | -21.57231 | 121.10299 | 38200 ft | 470 kts | 315° |
| 2026-05-07 20:23 | -21.51835 | 121.06317 | 38201 ft | 470 kts | 315° |
| 2026-05-07 20:23 | -21.46446 | 121.02341 | 38192 ft | 470 kts | 315° |
| 2026-05-07 20:24 | -21.41054 | 120.98371 | 38190 ft | 470 kts | 315° |
| 2026-05-07 20:24 | -21.35665 | 120.94404 | 38187 ft | 470 kts | 315° |
| 2026-05-07 20:25 | -21.30277 | 120.90443 | 38182 ft | 470 kts | 315° |
| 2026-05-07 20:25 | -21.24886 | 120.86482 | 38180 ft | 470 kts | 315° |
| 2026-05-07 20:26 | -21.19493 | 120.82524 | 38176 ft | 470 kts | 315° |
| 2026-05-07 20:26 | -21.14106 | 120.78573 | 38175 ft | 469 kts | 315° |
| 2026-05-07 20:27 | -21.08749 | 120.74649 | 38175 ft | 469 kts | 315° |
| 2026-05-07 20:27 | -21.03359 | 120.70703 | 38167 ft | 469 kts | 315° |
| 2026-05-07 20:28 | -20.97963 | 120.66757 | 38164 ft | 470 kts | 315° |
| 2026-05-07 20:28 | -20.92567 | 120.62814 | 38147 ft | 470 kts | 315° |
| 2026-05-07 20:29 | -20.87164 | 120.58869 | 38168 ft | 470 kts | 315° |
| 2026-05-07 20:29 | -20.81764 | 120.54929 | 38156 ft | 470 kts | 315° |
| 2026-05-07 20:30 | -20.76361 | 120.50992 | 38157 ft | 470 kts | 315° |
| 2026-05-07 20:30 | -20.70955 | 120.47056 | 38145 ft | 470 kts | 315° |
| 2026-05-07 20:31 | -20.65552 | 120.43125 | 38145 ft | 470 kts | 315° |
| 2026-05-07 20:31 | -20.60142 | 120.39193 | 38144 ft | 470 kts | 315° |
| 2026-05-07 20:32 | -20.54729 | 120.35262 | 38139 ft | 471 kts | 315° |
| 2026-05-07 20:32 | -20.49317 | 120.31336 | 38141 ft | 470 kts | 315° |
| 2026-05-07 20:33 | -20.43900 | 120.27408 | 38139 ft | 471 kts | 315° |
| 2026-05-07 20:33 | -20.38482 | 120.23483 | 38132 ft | 471 kts | 315° |
| 2026-05-07 20:34 | -20.33065 | 120.19563 | 38137 ft | 471 kts | 315° |
| 2026-05-07 20:34 | -20.27642 | 120.15641 | 38122 ft | 471 kts | 315° |
| 2026-05-07 20:35 | -20.22219 | 120.11724 | 38121 ft | 472 kts | 316° |
| 2026-05-07 20:35 | -20.16785 | 120.07801 | 38135 ft | 472 kts | 316° |
| 2026-05-07 20:36 | -20.11354 | 120.03885 | 38135 ft | 472 kts | 316° |
| 2026-05-07 20:36 | -20.05922 | 119.99970 | 38118 ft | 472 kts | 316° |
| 2026-05-07 20:37 | -20.00487 | 119.96057 | 38120 ft | 472 kts | 316° |
| 2026-05-07 20:37 | -19.95047 | 119.92143 | 38115 ft | 472 kts | 316° |
| 2026-05-07 20:38 | -19.89610 | 119.88235 | 38114 ft | 472 kts | 316° |
| 2026-05-07 20:38 | -19.84202 | 119.84351 | 38109 ft | 472 kts | 316° |
| 2026-05-07 20:39 | -19.78757 | 119.80445 | 38109 ft | 472 kts | 316° |
| 2026-05-07 20:39 | -19.73314 | 119.76542 | 38101 ft | 472 kts | 316° |
| 2026-05-07 20:40 | -19.67864 | 119.72637 | 38104 ft | 472 kts | 316° |
| 2026-05-07 20:40 | -19.62416 | 119.68738 | 38105 ft | 473 kts | 316° |
| 2026-05-07 20:41 | -19.56959 | 119.64835 | 38092 ft | 473 kts | 316° |
| 2026-05-07 20:41 | -19.51492 | 119.60928 | 38092 ft | 474 kts | 316° |
| 2026-05-07 20:42 | -19.46031 | 119.57031 | 38090 ft | 473 kts | 316° |
| 2026-05-07 20:42 | -19.40572 | 119.53136 | 38086 ft | 473 kts | 316° |
| 2026-05-07 20:43 | -19.35105 | 119.49238 | 38085 ft | 474 kts | 316° |
| 2026-05-07 20:43 | -19.29632 | 119.45340 | 38080 ft | 475 kts | 317° |
| 2026-05-07 20:44 | -19.24150 | 119.41439 | 38082 ft | 475 kts | 317° |
| 2026-05-07 20:44 | -19.18665 | 119.37540 | 38076 ft | 475 kts | 317° |
| 2026-05-07 20:45 | -19.13178 | 119.33640 | 38076 ft | 475 kts | 317° |
| 2026-05-07 20:45 | -19.07680 | 119.29737 | 38076 ft | 476 kts | 317° |
| 2026-05-07 20:46 | -19.02175 | 119.25832 | 38071 ft | 477 kts | 317° |
| 2026-05-07 20:46 | -18.96666 | 119.21928 | 38067 ft | 477 kts | 317° |
| 2026-05-07 20:47 | -18.91180 | 119.18044 | 38064 ft | 478 kts | 317° |
| 2026-05-07 20:47 | -18.85658 | 119.14136 | 38062 ft | 478 kts | 317° |
| 2026-05-07 20:48 | -18.80128 | 119.10226 | 38058 ft | 479 kts | 317° |
| 2026-05-07 20:48 | -18.74591 | 119.06315 | 38052 ft | 479 kts | 317° |
| 2026-05-07 20:49 | -18.69048 | 119.02402 | 38055 ft | 480 kts | 317° |
| 2026-05-07 20:49 | -18.63497 | 118.98486 | 38051 ft | 480 kts | 317° |
| 2026-05-07 20:50 | -18.57938 | 118.94568 | 38046 ft | 481 kts | 317° |
| 2026-05-07 20:50 | -18.52371 | 118.90648 | 38063 ft | 482 kts | 318° |
| 2026-05-07 20:51 | -18.46795 | 118.86725 | 38057 ft | 482 kts | 318° |
| 2026-05-07 20:51 | -18.41212 | 118.82800 | 38047 ft | 482 kts | 318° |
| 2026-05-07 20:52 | -18.35622 | 118.78873 | 38038 ft | 484 kts | 318° |
| 2026-05-07 20:52 | -18.30023 | 118.74942 | 38043 ft | 484 kts | 318° |
| 2026-05-07 20:53 | -18.24417 | 118.71010 | 38031 ft | 484 kts | 318° |
| 2026-05-07 20:53 | -18.18810 | 118.67081 | 38030 ft | 484 kts | 318° |
| 2026-05-07 20:54 | -18.13208 | 118.63158 | 38033 ft | 484 kts | 319° |
| 2026-05-07 20:54 | -18.07600 | 118.59234 | 38032 ft | 484 kts | 319° |
| 2026-05-07 20:55 | -18.01992 | 118.55312 | 38027 ft | 484 kts | 319° |
| 2026-05-07 20:55 | -17.96448 | 118.51439 | 38024 ft | 484 kts | 319° |
| 2026-05-07 20:56 | -17.90837 | 118.47522 | 38022 ft | 484 kts | 319° |
| 2026-05-07 20:56 | -17.85263 | 118.43633 | 38022 ft | 484 kts | 319° |
| 2026-05-07 20:57 | -17.79609 | 118.39693 | 38019 ft | 485 kts | 319° |
| 2026-05-07 20:57 | -17.74028 | 118.35805 | 38018 ft | 485 kts | 319° |
| 2026-05-07 20:58 | -17.68368 | 118.31866 | 38017 ft | 485 kts | 319° |
| 2026-05-07 20:58 | -17.62738 | 118.27950 | 38017 ft | 486 kts | 319° |
| 2026-05-07 20:59 | -17.57109 | 118.24039 | 38017 ft | 485 kts | 319° |
| 2026-05-07 20:59 | -17.51516 | 118.20155 | 38016 ft | 486 kts | 319° |
| 2026-05-07 21:00 | -17.45879 | 118.16243 | 38018 ft | 486 kts | 320° |
| 2026-05-07 21:00 | -17.41156 | 118.12969 | 38016 ft | 486 kts | 320° |
| 2026-05-07 21:01 | -17.35490 | 118.09039 | 38241 ft | 492 kts | 320° |
| 2026-05-07 21:01 | -17.32627 | 118.07056 | 38530 ft | 494 kts | 320° |
| 2026-05-07 21:01 | -17.29767 | 118.05077 | 38911 ft | 493 kts | 320° |
| 2026-05-07 21:01 | -17.26947 | 118.03128 | 39304 ft | 491 kts | 320° |
| 2026-05-07 21:02 | -17.24106 | 118.01165 | 39694 ft | 489 kts | 320° |
| 2026-05-07 21:02 | -17.21274 | 117.99208 | 40080 ft | 487 kts | 320° |
| 2026-05-07 21:02 | -17.18442 | 117.97248 | 40053 ft | 492 kts | 320° |
| 2026-05-07 21:03 | -17.12812 | 117.93361 | 40004 ft | 484 kts | 320° |
| 2026-05-07 21:03 | -17.07175 | 117.89466 | 40013 ft | 486 kts | 320° |
| 2026-05-07 21:04 | -17.01537 | 117.85576 | 40015 ft | 486 kts | 320° |
| 2026-05-07 21:04 | -16.95896 | 117.81688 | 40009 ft | 486 kts | 320° |
| 2026-05-07 21:05 | -16.90253 | 117.77801 | 40009 ft | 486 kts | 320° |
| 2026-05-07 21:05 | -16.84610 | 117.73918 | 40005 ft | 486 kts | 320° |
| 2026-05-07 21:06 | -16.79005 | 117.70062 | 40006 ft | 486 kts | 320° |
| 2026-05-07 21:06 | -16.73364 | 117.66185 | 40009 ft | 486 kts | 320° |
| 2026-05-07 21:07 | -16.67719 | 117.62308 | 40000 ft | 486 kts | 320° |
| 2026-05-07 21:07 | -16.62073 | 117.58432 | 39995 ft | 485 kts | 320° |
| 2026-05-07 21:08 | -16.56432 | 117.54562 | 39997 ft | 486 kts | 320° |
| 2026-05-07 21:08 | -16.50794 | 117.50696 | 39988 ft | 485 kts | 320° |
| 2026-05-07 21:09 | -16.45148 | 117.46827 | 39987 ft | 486 kts | 321° |
| 2026-05-07 21:09 | -16.39504 | 117.42963 | 40003 ft | 486 kts | 321° |
| 2026-05-07 21:10 | -16.33821 | 117.39143 | 40002 ft | 489 kts | 324° |
| 2026-05-07 21:10 | -16.27701 | 117.35956 | 39993 ft | 496 kts | 331° |
| 2026-05-07 21:11 | -16.21127 | 117.33622 | 39992 ft | 503 kts | 338° |
| 2026-05-07 21:11 | -16.11050 | 117.30603 | 39990 ft | 502 kts | 337° |
| 2026-05-07 21:12 | -16.04343 | 117.28580 | 39990 ft | 502 kts | 338° |
| 2026-05-07 21:12 | -15.97626 | 117.26559 | 39983 ft | 502 kts | 338° |
| 2026-05-07 21:13 | -15.90914 | 117.24543 | 39982 ft | 503 kts | 338° |
| 2026-05-07 21:13 | -15.84241 | 117.22539 | 39983 ft | 502 kts | 338° |
| 2026-05-07 21:14 | -15.77526 | 117.20524 | 39982 ft | 502 kts | 338° |
| 2026-05-07 21:14 | -15.70813 | 117.18512 | 39981 ft | 502 kts | 338° |
| 2026-05-07 21:15 | -15.64100 | 117.16500 | 39974 ft | 502 kts | 338° |
| 2026-05-07 21:15 | -15.57380 | 117.14488 | 39975 ft | 502 kts | 338° |
| 2026-05-07 21:16 | -15.50662 | 117.12478 | 39976 ft | 503 kts | 338° |
| 2026-05-07 21:16 | -15.43936 | 117.10467 | 39967 ft | 503 kts | 338° |
| 2026-05-07 21:17 | -15.37212 | 117.08458 | 39972 ft | 503 kts | 338° |
| 2026-05-07 21:17 | -15.30481 | 117.06448 | 39967 ft | 504 kts | 338° |
| 2026-05-07 21:18 | -15.23747 | 117.04438 | 39969 ft | 503 kts | 338° |
| 2026-05-07 21:18 | -15.17017 | 117.02431 | 39968 ft | 503 kts | 338° |
| 2026-05-07 21:19 | -15.10290 | 117.00428 | 39968 ft | 503 kts | 338° |
| 2026-05-07 21:19 | -15.03558 | 116.98425 | 39964 ft | 503 kts | 338° |
| 2026-05-07 21:20 | -14.96828 | 116.96423 | 39962 ft | 503 kts | 338° |
| 2026-05-07 21:20 | -14.90144 | 116.94436 | 39964 ft | 503 kts | 338° |
| 2026-05-07 21:21 | -14.83411 | 116.92436 | 39962 ft | 504 kts | 338° |
| 2026-05-07 21:21 | -14.76672 | 116.90435 | 39960 ft | 504 kts | 338° |
| 2026-05-07 21:22 | -14.69929 | 116.88434 | 39961 ft | 504 kts | 338° |
| 2026-05-07 21:22 | -14.63178 | 116.86433 | 39959 ft | 505 kts | 338° |
| 2026-05-07 21:23 | -14.56417 | 116.84430 | 39957 ft | 505 kts | 338° |
| 2026-05-07 21:23 | -14.49669 | 116.82432 | 39957 ft | 504 kts | 338° |
| 2026-05-07 21:24 | -14.42927 | 116.80437 | 39956 ft | 504 kts | 338° |
| 2026-05-07 21:24 | -14.36188 | 116.78444 | 39960 ft | 504 kts | 338° |
| 2026-05-07 21:25 | -14.29446 | 116.76451 | 39956 ft | 504 kts | 338° |
| 2026-05-07 21:25 | -14.22701 | 116.74459 | 39953 ft | 504 kts | 339° |
| 2026-05-07 21:26 | -14.15952 | 116.72467 | 39948 ft | 504 kts | 339° |
| 2026-05-07 21:26 | -14.09204 | 116.70476 | 39954 ft | 504 kts | 339° |
| 2026-05-07 21:27 | -14.02462 | 116.68489 | 39953 ft | 504 kts | 339° |
| 2026-05-07 21:27 | -13.95712 | 116.66500 | 39949 ft | 504 kts | 339° |
| 2026-05-07 21:28 | -13.88960 | 116.64511 | 39948 ft | 505 kts | 339° |
| 2026-05-07 21:28 | -13.82205 | 116.62524 | 39949 ft | 505 kts | 339° |
| 2026-05-07 21:29 | -13.75440 | 116.60534 | 39946 ft | 506 kts | 339° |
| 2026-05-07 21:29 | -13.68687 | 116.58550 | 39944 ft | 504 kts | 339° |
| 2026-05-07 21:30 | -13.61946 | 116.56569 | 39945 ft | 504 kts | 339° |
| 2026-05-07 21:30 | -13.55207 | 116.54591 | 39942 ft | 504 kts | 339° |
| 2026-05-07 21:31 | -13.48460 | 116.52611 | 39945 ft | 505 kts | 339° |
| 2026-05-07 21:31 | -13.41709 | 116.50632 | 39941 ft | 505 kts | 339° |
| 2026-05-07 21:32 | -13.34954 | 116.48652 | 39943 ft | 505 kts | 339° |
| 2026-05-07 21:32 | -13.28195 | 116.46673 | 39943 ft | 505 kts | 339° |
| 2026-05-07 21:33 | -13.21481 | 116.44707 | 39937 ft | 506 kts | 339° |
| 2026-05-07 21:33 | -13.14714 | 116.42728 | 39937 ft | 506 kts | 339° |
| 2026-05-07 21:34 | -13.07934 | 116.40746 | 39936 ft | 507 kts | 339° |
| 2026-05-07 21:34 | -13.01156 | 116.38765 | 39936 ft | 507 kts | 339° |
| 2026-05-07 21:35 | -12.94369 | 116.36783 | 39931 ft | 507 kts | 339° |
| 2026-05-07 21:35 | -12.87585 | 116.34803 | 39925 ft | 506 kts | 339° |
| 2026-05-07 21:36 | -12.80815 | 116.32828 | 39923 ft | 505 kts | 339° |
| 2026-05-07 21:36 | -12.74043 | 116.30854 | 39924 ft | 506 kts | 339° |
| 2026-05-07 21:37 | -12.67274 | 116.28881 | 39926 ft | 505 kts | 339° |
| 2026-05-07 21:37 | -12.60528 | 116.26917 | 39939 ft | 504 kts | 339° |
| 2026-05-07 21:38 | -12.53775 | 116.24951 | 39934 ft | 505 kts | 339° |
| 2026-05-07 21:38 | -12.47021 | 116.22986 | 39935 ft | 505 kts | 339° |
| 2026-05-07 21:39 | -12.40261 | 116.21020 | 39926 ft | 505 kts | 340° |
| 2026-05-07 21:39 | -12.33496 | 116.19055 | 39920 ft | 505 kts | 340° |
| 2026-05-07 21:40 | -12.26731 | 116.17090 | 39919 ft | 506 kts | 340° |
| 2026-05-07 21:40 | -12.19958 | 116.15124 | 39918 ft | 506 kts | 340° |
| 2026-05-07 21:41 | -12.13181 | 116.13157 | 39922 ft | 507 kts | 340° |
| 2026-05-07 21:41 | -12.06398 | 116.11190 | 39921 ft | 507 kts | 340° |
| 2026-05-07 21:42 | -11.99606 | 116.09221 | 39921 ft | 507 kts | 340° |
| 2026-05-07 21:42 | -11.92849 | 116.07162 | 39913 ft | 507 kts | 339° |
| 2026-05-07 21:43 | -11.86100 | 116.05059 | 39911 ft | 507 kts | 339° |
| 2026-05-07 21:43 | -11.79348 | 116.02973 | 39914 ft | 507 kts | 339° |
| 2026-05-07 21:44 | -11.72581 | 116.00890 | 39918 ft | 508 kts | 339° |
| 2026-05-07 21:44 | -11.65820 | 115.98810 | 39909 ft | 508 kts | 339° |
| 2026-05-07 21:45 | -11.59053 | 115.96729 | 39913 ft | 508 kts | 339° |
| 2026-05-07 21:45 | -11.52289 | 115.94651 | 39914 ft | 508 kts | 339° |
| 2026-05-07 21:46 | -11.45528 | 115.92573 | 39913 ft | 508 kts | 340° |
| 2026-05-07 21:46 | -11.38762 | 115.90496 | 39914 ft | 508 kts | 340° |
| 2026-05-07 21:47 | -11.32036 | 115.88432 | 39906 ft | 509 kts | 340° |
| 2026-05-07 21:47 | -11.25256 | 115.86352 | 39903 ft | 509 kts | 340° |
| 2026-05-07 21:48 | -11.18470 | 115.84272 | 39905 ft | 509 kts | 340° |
| 2026-05-07 21:48 | -11.11660 | 115.82273 | 39904 ft | 510 kts | 341° |
| 2026-05-07 21:49 | -11.05917 | 115.80689 | 39900 ft | 510 kts | 341° |
| 2026-05-07 21:49 | -10.99071 | 115.78784 | 39904 ft | 510 kts | 341° |
| 2026-05-07 21:50 | -10.92219 | 115.76863 | 39904 ft | 510 kts | 341° |
| 2026-05-07 21:50 | -10.85370 | 115.74941 | 39901 ft | 511 kts | 341° |
| 2026-05-07 21:51 | -10.78518 | 115.73018 | 39905 ft | 511 kts | 341° |
| 2026-05-07 21:51 | -10.71664 | 115.71097 | 39902 ft | 511 kts | 341° |
| 2026-05-07 21:52 | -10.64808 | 115.69175 | 39899 ft | 511 kts | 341° |
| 2026-05-07 21:52 | -10.57996 | 115.67267 | 39900 ft | 511 kts | 342° |
| 2026-05-07 21:53 | -10.51138 | 115.65347 | 39898 ft | 511 kts | 342° |
| 2026-05-07 21:53 | -10.44281 | 115.63428 | 39897 ft | 511 kts | 342° |
| 2026-05-07 21:54 | -10.37416 | 115.61508 | 39898 ft | 512 kts | 342° |
| 2026-05-07 21:54 | -10.30553 | 115.59589 | 39897 ft | 512 kts | 342° |
| 2026-05-07 21:55 | -10.23684 | 115.57669 | 39895 ft | 512 kts | 342° |
| 2026-05-07 21:55 | -10.16766 | 115.55737 | 39896 ft | 512 kts | 342° |
| 2026-05-07 21:56 | -10.09942 | 115.53832 | 39896 ft | 512 kts | 342° |
| 2026-05-07 21:56 | -10.03068 | 115.51913 | 39890 ft | 512 kts | 342° |
| 2026-05-07 21:57 | -9.96195 | 115.49996 | 39894 ft | 512 kts | 342° |
| 2026-05-07 21:57 | -9.89320 | 115.48078 | 39891 ft | 513 kts | 342° |
| 2026-05-07 21:58 | -9.82435 | 115.46159 | 39891 ft | 513 kts | 342° |
| 2026-05-07 21:58 | -9.75558 | 115.44243 | 39888 ft | 513 kts | 342° |
| 2026-05-07 21:59 | -9.68681 | 115.42328 | 39890 ft | 512 kts | 342° |
| 2026-05-07 21:59 | -9.61809 | 115.40416 | 39888 ft | 512 kts | 342° |
| 2026-05-07 22:00 | -9.54943 | 115.38505 | 39889 ft | 512 kts | 342° |
| 2026-05-07 22:00 | -9.48074 | 115.36594 | 39889 ft | 512 kts | 342° |
| 2026-05-07 22:01 | -9.41200 | 115.34683 | 39891 ft | 513 kts | 342° |
| 2026-05-07 22:01 | -9.34336 | 115.32775 | 39887 ft | 511 kts | 342° |
| 2026-05-07 22:02 | -9.27476 | 115.30870 | 39882 ft | 511 kts | 342° |
| 2026-05-07 22:02 | -9.20620 | 115.28966 | 39882 ft | 511 kts | 342° |
| 2026-05-07 22:03 | -9.13768 | 115.27073 | 39887 ft | 511 kts | 342° |
| 2026-05-07 22:03 | -9.06913 | 115.25168 | 39888 ft | 511 kts | 342° |
| 2026-05-07 22:04 | -9.00059 | 115.23262 | 39886 ft | 511 kts | 342° |
| 2026-05-07 22:04 | -8.93253 | 115.21374 | 39881 ft | 511 kts | 342° |
| 2026-05-07 22:05 | -8.86400 | 115.19475 | 39882 ft | 511 kts | 342° |
| 2026-05-07 22:05 | -8.79573 | 115.17476 | 39883 ft | 510 kts | 338° |
| 2026-05-07 22:06 | -8.73133 | 115.14543 | 39888 ft | 507 kts | 329° |
| 2026-05-07 22:06 | -8.67263 | 115.10632 | 39886 ft | 505 kts | 322° |
| 2026-05-07 22:07 | -8.61577 | 115.06455 | 39888 ft | 505 kts | 322° |
| 2026-05-07 22:07 | -8.55873 | 115.02288 | 39891 ft | 506 kts | 322° |
| 2026-05-07 22:08 | -8.50171 | 114.98120 | 39893 ft | 506 kts | 322° |
| 2026-05-07 22:08 | -8.44477 | 114.93956 | 39895 ft | 506 kts | 322° |
| 2026-05-07 22:09 | -8.38768 | 114.89783 | 39892 ft | 506 kts | 322° |
| 2026-05-07 22:09 | -8.33064 | 114.85614 | 39889 ft | 506 kts | 322° |
| 2026-05-07 22:10 | -8.27359 | 114.81447 | 39890 ft | 506 kts | 322° |
| 2026-05-07 22:10 | -8.21652 | 114.77280 | 39880 ft | 506 kts | 322° |
| 2026-05-07 22:11 | -8.15944 | 114.73114 | 39878 ft | 507 kts | 322° |
| 2026-05-07 22:11 | -8.10231 | 114.68946 | 39879 ft | 507 kts | 323° |
| 2026-05-07 22:12 | -8.04515 | 114.64777 | 39877 ft | 507 kts | 322° |
| 2026-05-07 22:12 | -7.98800 | 114.60610 | 39873 ft | 507 kts | 323° |
| 2026-05-07 22:13 | -7.93083 | 114.56443 | 39872 ft | 507 kts | 323° |
| 2026-05-07 22:13 | -7.87405 | 114.52306 | 39874 ft | 507 kts | 323° |
| 2026-05-07 22:14 | -7.81681 | 114.48137 | 39867 ft | 507 kts | 323° |
| 2026-05-07 22:14 | -7.75961 | 114.43973 | 39867 ft | 507 kts | 323° |
| 2026-05-07 22:15 | -7.70239 | 114.39807 | 39867 ft | 508 kts | 323° |
| 2026-05-07 22:15 | -7.64515 | 114.35643 | 39859 ft | 508 kts | 323° |
| 2026-05-07 22:16 | -7.58788 | 114.31477 | 39857 ft | 507 kts | 323° |
| 2026-05-07 22:16 | -7.53062 | 114.27314 | 39851 ft | 508 kts | 323° |
| 2026-05-07 22:17 | -7.47333 | 114.23149 | 39846 ft | 507 kts | 323° |
| 2026-05-07 22:17 | -7.41604 | 114.18986 | 39847 ft | 508 kts | 323° |
| 2026-05-07 22:18 | -7.33014 | 114.12747 | 39845 ft | 507 kts | 323° |
| 2026-05-07 22:19 | -7.27287 | 114.08589 | 39847 ft | 508 kts | 323° |
| 2026-05-07 22:19 | -7.21591 | 114.04455 | 39845 ft | 508 kts | 323° |
| 2026-05-07 22:20 | -7.15857 | 114.00294 | 39845 ft | 508 kts | 323° |
| 2026-05-07 22:20 | -7.10124 | 113.96136 | 39849 ft | 508 kts | 323° |
| 2026-05-07 22:21 | -7.04381 | 113.91971 | 39845 ft | 508 kts | 323° |
| 2026-05-07 22:21 | -6.98642 | 113.87811 | 39846 ft | 509 kts | 323° |
| 2026-05-07 22:22 | -6.92901 | 113.83656 | 39845 ft | 508 kts | 323° |
| 2026-05-07 22:22 | -6.87156 | 113.79500 | 39845 ft | 508 kts | 323° |
| 2026-05-07 22:23 | -6.81418 | 113.75348 | 39845 ft | 508 kts | 323° |
| 2026-05-07 22:23 | -6.75675 | 113.71195 | 39847 ft | 508 kts | 323° |
| 2026-05-07 22:24 | -6.69929 | 113.67041 | 39844 ft | 509 kts | 323° |
| 2026-05-07 22:24 | -6.64221 | 113.62915 | 39841 ft | 509 kts | 323° |
| 2026-05-07 22:25 | -6.58475 | 113.58763 | 39841 ft | 509 kts | 323° |
| 2026-05-07 22:25 | -6.52731 | 113.54614 | 39842 ft | 508 kts | 323° |
| 2026-05-07 22:26 | -6.46986 | 113.50465 | 39843 ft | 508 kts | 323° |
| 2026-05-07 22:26 | -6.41241 | 113.46317 | 39840 ft | 508 kts | 323° |
| 2026-05-07 22:27 | -6.35489 | 113.42167 | 39842 ft | 509 kts | 323° |
| 2026-05-07 22:27 | -6.29738 | 113.38038 | 39848 ft | 508 kts | 322° |
| 2026-05-07 22:28 | -6.24421 | 113.33386 | 39844 ft | 506 kts | 313° |
| 2026-05-07 22:28 | -6.19914 | 113.27963 | 39846 ft | 506 kts | 306° |
| 2026-05-07 22:29 | -6.15622 | 113.22377 | 39847 ft | 504 kts | 307° |
| 2026-05-07 22:29 | -6.11344 | 113.16802 | 39848 ft | 505 kts | 307° |
| 2026-05-07 22:30 | -6.07053 | 113.11220 | 39842 ft | 505 kts | 306° |
| 2026-05-07 22:30 | -6.02758 | 113.05633 | 39845 ft | 505 kts | 307° |
| 2026-05-07 22:31 | -5.98467 | 113.00058 | 39862 ft | 505 kts | 307° |
| 2026-05-07 22:31 | -5.94167 | 112.94486 | 39861 ft | 504 kts | 307° |
| 2026-05-07 22:32 | -5.89877 | 112.88902 | 39843 ft | 505 kts | 307° |
| 2026-05-07 22:32 | -5.85579 | 112.83324 | 39839 ft | 504 kts | 307° |
| 2026-05-07 22:33 | -5.81285 | 112.77761 | 39842 ft | 505 kts | 307° |
| 2026-05-07 22:33 | -5.77003 | 112.72171 | 39845 ft | 505 kts | 307° |
| 2026-05-07 22:34 | -5.72713 | 112.66590 | 39863 ft | 504 kts | 307° |
| 2026-05-07 22:34 | -5.68420 | 112.61020 | 39862 ft | 504 kts | 307° |
| 2026-05-07 22:35 | -5.64130 | 112.55450 | 39840 ft | 506 kts | 307° |
| 2026-05-07 22:35 | -5.59867 | 112.49907 | 39839 ft | 504 kts | 307° |
| 2026-05-07 22:36 | -5.55562 | 112.44341 | 39844 ft | 505 kts | 307° |
| 2026-05-07 22:36 | -5.51266 | 112.38768 | 39863 ft | 505 kts | 307° |
| 2026-05-07 22:37 | -5.46971 | 112.33198 | 39844 ft | 503 kts | 307° |
| 2026-05-07 22:37 | -5.43404 | 112.28570 | 39847 ft | 505 kts | 307° |
| 2026-05-07 22:38 | -5.39100 | 112.22999 | 39866 ft | 505 kts | 307° |
| 2026-05-07 22:38 | -5.34795 | 112.17424 | 39856 ft | 504 kts | 307° |
| 2026-05-07 22:39 | -5.30493 | 112.11857 | 39839 ft | 506 kts | 307° |
| 2026-05-07 22:39 | -5.26189 | 112.06282 | 39835 ft | 505 kts | 307° |
| 2026-05-07 22:40 | -5.21891 | 112.00718 | 39845 ft | 504 kts | 307° |
| 2026-05-07 22:40 | -5.17592 | 111.95155 | 39859 ft | 505 kts | 307° |
| 2026-05-07 22:41 | -5.13294 | 111.89597 | 39858 ft | 503 kts | 307° |
| 2026-05-07 22:41 | -5.08992 | 111.84044 | 39838 ft | 504 kts | 307° |
| 2026-05-07 22:42 | -5.04694 | 111.78477 | 39837 ft | 504 kts | 307° |
| 2026-05-07 22:42 | -5.00427 | 111.72960 | 39854 ft | 505 kts | 307° |
| 2026-05-07 22:43 | -4.96118 | 111.67403 | 39859 ft | 504 kts | 307° |
| 2026-05-07 22:43 | -4.91828 | 111.61849 | 39854 ft | 504 kts | 307° |
| 2026-05-07 22:44 | -4.87525 | 111.56287 | 39831 ft | 505 kts | 307° |
| 2026-05-07 22:44 | -4.83222 | 111.50729 | 39834 ft | 504 kts | 307° |
| 2026-05-07 22:45 | -4.78915 | 111.45168 | 39837 ft | 505 kts | 308° |
| 2026-05-07 22:45 | -4.74611 | 111.39612 | 39855 ft | 505 kts | 308° |
| 2026-05-07 22:46 | -4.70306 | 111.34056 | 39855 ft | 504 kts | 308° |
| 2026-05-07 22:46 | -4.65992 | 111.28490 | 39836 ft | 506 kts | 308° |
| 2026-05-07 22:47 | -4.61669 | 111.22912 | 39830 ft | 506 kts | 308° |
| 2026-05-07 22:47 | -4.57363 | 111.17329 | 39832 ft | 507 kts | 308° |
| 2026-05-07 22:48 | -4.53057 | 111.11733 | 39854 ft | 507 kts | 308° |
| 2026-05-07 22:48 | -4.48748 | 111.06139 | 39856 ft | 507 kts | 308° |
| 2026-05-07 22:49 | -4.44461 | 111.00574 | 39851 ft | 508 kts | 308° |
| 2026-05-07 22:49 | -4.40146 | 110.94975 | 39828 ft | 507 kts | 308° |
| 2026-05-07 22:50 | -4.35830 | 110.89377 | 39828 ft | 508 kts | 308° |
| 2026-05-07 22:50 | -4.31513 | 110.83779 | 39842 ft | 508 kts | 308° |
| 2026-05-07 22:51 | -4.27194 | 110.78179 | 39850 ft | 508 kts | 308° |
| 2026-05-07 22:51 | -4.22872 | 110.72577 | 39847 ft | 508 kts | 309° |
| 2026-05-07 22:52 | -4.18550 | 110.66978 | 39828 ft | 508 kts | 309° |
| 2026-05-07 22:52 | -4.14224 | 110.61386 | 39826 ft | 508 kts | 309° |
| 2026-05-07 22:53 | -4.09893 | 110.55782 | 39844 ft | 509 kts | 309° |
| 2026-05-07 22:53 | -4.05570 | 110.50169 | 39846 ft | 509 kts | 309° |
| 2026-05-07 22:54 | -4.01270 | 110.44591 | 39842 ft | 509 kts | 309° |
| 2026-05-07 22:54 | -3.96937 | 110.38980 | 39838 ft | 509 kts | 310° |
| 2026-05-07 22:55 | -3.92363 | 110.33586 | 39848 ft | 508 kts | 313° |
| 2026-05-07 22:55 | -3.87759 | 110.28222 | 39841 ft | 508 kts | 312° |
| 2026-05-07 22:56 | -3.83154 | 110.22852 | 39845 ft | 508 kts | 312° |
| 2026-05-07 22:56 | -3.78541 | 110.17495 | 39840 ft | 508 kts | 312° |
| 2026-05-07 22:57 | -3.73936 | 110.12125 | 39825 ft | 507 kts | 312° |
| 2026-05-07 22:57 | -3.69339 | 110.06762 | 39834 ft | 508 kts | 312° |
| 2026-05-07 22:58 | -3.64739 | 110.01405 | 39838 ft | 507 kts | 312° |
| 2026-05-07 22:58 | -3.60139 | 109.96049 | 39840 ft | 507 kts | 312° |
| 2026-05-07 22:59 | -3.55547 | 109.90700 | 39841 ft | 507 kts | 312° |
| 2026-05-07 22:59 | -3.50942 | 109.85340 | 39836 ft | 507 kts | 312° |
| 2026-05-07 23:00 | -3.46339 | 109.79986 | 39842 ft | 507 kts | 312° |
| 2026-05-07 23:00 | -3.41768 | 109.74668 | 39837 ft | 507 kts | 312° |
| 2026-05-07 23:01 | -3.37163 | 109.69310 | 39837 ft | 507 kts | 312° |
| 2026-05-07 23:01 | -3.32560 | 109.63953 | 39842 ft | 507 kts | 312° |
| 2026-05-07 23:02 | -3.27958 | 109.58600 | 39844 ft | 507 kts | 312° |
| 2026-05-07 23:02 | -3.23354 | 109.53246 | 39841 ft | 507 kts | 312° |
| 2026-05-07 23:03 | -3.18755 | 109.47899 | 39835 ft | 507 kts | 312° |
| 2026-05-07 23:03 | -3.14148 | 109.42554 | 39842 ft | 507 kts | 312° |
| 2026-05-07 23:04 | -3.09537 | 109.37216 | 39846 ft | 507 kts | 312° |
| 2026-05-07 23:04 | -3.04945 | 109.31858 | 39840 ft | 507 kts | 312° |
| 2026-05-07 23:05 | -3.00343 | 109.26503 | 39845 ft | 507 kts | 312° |
| 2026-05-07 23:05 | -2.95739 | 109.21154 | 39845 ft | 507 kts | 312° |
| 2026-05-07 23:06 | -2.91136 | 109.15807 | 39843 ft | 507 kts | 312° |
| 2026-05-07 23:06 | -2.86524 | 109.10455 | 39846 ft | 507 kts | 312° |
| 2026-05-07 23:07 | -2.81905 | 109.05116 | 39846 ft | 507 kts | 312° |
| 2026-05-07 23:07 | -2.77283 | 108.99773 | 39843 ft | 508 kts | 312° |
| 2026-05-07 23:08 | -2.72656 | 108.94423 | 39843 ft | 508 kts | 312° |
| 2026-05-07 23:08 | -2.68032 | 108.89076 | 39844 ft | 509 kts | 312° |
| 2026-05-07 23:09 | -2.63398 | 108.83718 | 39844 ft | 509 kts | 312° |
| 2026-05-07 23:09 | -2.58761 | 108.78357 | 39844 ft | 510 kts | 312° |
| 2026-05-07 23:10 | -2.54117 | 108.72989 | 39843 ft | 510 kts | 312° |
| 2026-05-07 23:10 | -2.49469 | 108.67618 | 39848 ft | 511 kts | 312° |
| 2026-05-07 23:11 | -2.44850 | 108.62269 | 39848 ft | 512 kts | 312° |
| 2026-05-07 23:11 | -2.40197 | 108.56868 | 39847 ft | 512 kts | 312° |
| 2026-05-07 23:12 | -2.35541 | 108.51467 | 39846 ft | 513 kts | 312° |
| 2026-05-07 23:12 | -2.30879 | 108.46061 | 39843 ft | 513 kts | 312° |
| 2026-05-07 23:13 | -2.26208 | 108.40645 | 39847 ft | 514 kts | 312° |
| 2026-05-07 23:13 | -2.21541 | 108.35234 | 39847 ft | 514 kts | 312° |
| 2026-05-07 23:14 | -2.16864 | 108.29813 | 39846 ft | 515 kts | 312° |
| 2026-05-07 23:14 | -2.12186 | 108.24390 | 39846 ft | 515 kts | 312° |
| 2026-05-07 23:15 | -2.07505 | 108.18965 | 39848 ft | 515 kts | 312° |
| 2026-05-07 23:15 | -2.02822 | 108.13538 | 39847 ft | 515 kts | 312° |
| 2026-05-07 23:16 | -1.98144 | 108.08112 | 39845 ft | 516 kts | 312° |
| 2026-05-07 23:16 | -1.93458 | 108.02677 | 39846 ft | 516 kts | 312° |
| 2026-05-07 23:17 | -1.88799 | 107.97275 | 39847 ft | 517 kts | 312° |
| 2026-05-07 23:17 | -1.84073 | 107.91796 | 39844 ft | 517 kts | 312° |
| 2026-05-07 23:18 | -1.79400 | 107.86378 | 39849 ft | 518 kts | 312° |
| 2026-05-07 23:18 | -1.74694 | 107.80923 | 39844 ft | 518 kts | 312° |
| 2026-05-07 23:19 | -1.69988 | 107.75469 | 39851 ft | 519 kts | 312° |
| 2026-05-07 23:19 | -1.65271 | 107.70001 | 39850 ft | 519 kts | 312° |
| 2026-05-07 23:20 | -1.60553 | 107.64533 | 39850 ft | 519 kts | 312° |
| 2026-05-07 23:20 | -1.55835 | 107.59065 | 39850 ft | 519 kts | 312° |
| 2026-05-07 23:21 | -1.51123 | 107.53606 | 39852 ft | 518 kts | 311° |
| 2026-05-07 23:21 | -1.46417 | 107.48154 | 39849 ft | 518 kts | 311° |
| 2026-05-07 23:22 | -1.41711 | 107.42701 | 39850 ft | 517 kts | 311° |
| 2026-05-07 23:22 | -1.37016 | 107.37262 | 39850 ft | 517 kts | 311° |
| 2026-05-07 23:23 | -1.32271 | 107.31864 | 39851 ft | 516 kts | 313° |
| 2026-05-07 23:23 | -1.27494 | 107.26503 | 39853 ft | 516 kts | 313° |
| 2026-05-07 23:24 | -1.22757 | 107.21171 | 39849 ft | 516 kts | 312° |
| 2026-05-07 23:24 | -1.17968 | 107.15771 | 39851 ft | 515 kts | 312° |
| 2026-05-07 23:25 | -1.13245 | 107.10445 | 39849 ft | 515 kts | 312° |
| 2026-05-07 23:25 | -1.08493 | 107.05086 | 39851 ft | 514 kts | 312° |
| 2026-05-07 23:26 | -1.03747 | 106.99735 | 39855 ft | 514 kts | 312° |
| 2026-05-07 23:26 | -0.99003 | 106.94386 | 39853 ft | 514 kts | 312° |
| 2026-05-07 23:27 | -0.91899 | 106.86376 | 39856 ft | 513 kts | 312° |
| 2026-05-07 23:27 | -0.87162 | 106.81036 | 39857 ft | 513 kts | 312° |
| 2026-05-07 23:28 | -0.82432 | 106.75704 | 39857 ft | 512 kts | 312° |
| 2026-05-07 23:28 | -0.77707 | 106.70378 | 39855 ft | 512 kts | 312° |
| 2026-05-07 23:29 | -0.73778 | 106.65948 | 39857 ft | 512 kts | 312° |
| 2026-05-07 23:29 | -0.69054 | 106.60624 | 39859 ft | 512 kts | 312° |
| 2026-05-07 23:30 | -0.64326 | 106.55294 | 39854 ft | 512 kts | 312° |
| 2026-05-07 23:30 | -0.59367 | 106.50207 | 39859 ft | 511 kts | 320° |
| 2026-05-07 23:31 | -0.54034 | 106.45504 | 39856 ft | 511 kts | 319° |
| 2026-05-07 23:31 | -0.48723 | 106.40779 | 39855 ft | 510 kts | 319° |
| 2026-05-07 23:32 | -0.43513 | 106.36146 | 39856 ft | 490 kts | 319° |
| 2026-05-07 23:32 | -0.38454 | 106.31650 | 39856 ft | 488 kts | 319° |
| 2026-05-07 23:33 | -0.33372 | 106.27136 | 39856 ft | 489 kts | 319° |
| 2026-05-07 23:33 | -0.28286 | 106.22617 | 39858 ft | 489 kts | 319° |
| 2026-05-07 23:34 | -0.23206 | 106.18104 | 39857 ft | 489 kts | 319° |
| 2026-05-07 23:34 | -0.18121 | 106.13587 | 39860 ft | 489 kts | 319° |
| 2026-05-07 23:35 | -0.13036 | 106.09069 | 39861 ft | 489 kts | 319° |
| 2026-05-07 23:35 | -0.07944 | 106.04545 | 39859 ft | 490 kts | 319° |
| 2026-05-07 23:36 | -0.02854 | 106.00023 | 39864 ft | 490 kts | 319° |
| 2026-05-07 23:36 | 0.02233 | 105.95503 | 39863 ft | 489 kts | 319° |
| 2026-05-07 23:37 | 0.07289 | 105.91012 | 39861 ft | 489 kts | 319° |
| 2026-05-07 23:37 | 0.12365 | 105.86501 | 39686 ft | 486 kts | 319° |
| 2026-05-07 23:38 | 0.14912 | 105.84239 | 39448 ft | 483 kts | 319° |
| 2026-05-07 23:38 | 0.17389 | 105.82039 | 39216 ft | 484 kts | 319° |
| 2026-05-07 23:38 | 0.19942 | 105.79770 | 38990 ft | 485 kts | 319° |
| 2026-05-07 23:38 | 0.22468 | 105.77526 | 38772 ft | 487 kts | 319° |
| 2026-05-07 23:39 | 0.25003 | 105.75274 | 38373 ft | 488 kts | 319° |
| 2026-05-07 23:39 | 0.27546 | 105.73015 | 37599 ft | 491 kts | 319° |
| 2026-05-07 23:39 | 0.30115 | 105.70732 | 36652 ft | 497 kts | 319° |
| 2026-05-07 23:39 | 0.32687 | 105.68447 | 35647 ft | 505 kts | 319° |
| 2026-05-07 23:40 | 0.35311 | 105.66116 | 34936 ft | 505 kts | 319° |
| 2026-05-07 23:40 | 0.37936 | 105.63784 | 34121 ft | 506 kts | 319° |
| 2026-05-07 23:40 | 0.40583 | 105.61432 | 32932 ft | 514 kts | 319° |
| 2026-05-07 23:40 | 0.43272 | 105.59044 | 31978 ft | 517 kts | 319° |
| 2026-05-07 23:41 | 0.45952 | 105.56662 | 31287 ft | 514 kts | 319° |
| 2026-05-07 23:41 | 0.48601 | 105.54307 | 30856 ft | 505 kts | 319° |
| 2026-05-07 23:41 | 0.51188 | 105.52008 | 30595 ft | 493 kts | 319° |
| 2026-05-07 23:41 | 0.53743 | 105.49736 | 29921 ft | 491 kts | 319° |
| 2026-05-07 23:42 | 0.56302 | 105.47464 | 29121 ft | 491 kts | 320° |
| 2026-05-07 23:42 | 0.58837 | 105.45211 | 28632 ft | 484 kts | 320° |
| 2026-05-07 23:42 | 0.61333 | 105.42994 | 28113 ft | 477 kts | 320° |
| 2026-05-07 23:42 | 0.63906 | 105.40925 | 27506 ft | 472 kts | 326° |
| 2026-05-07 23:43 | 0.66675 | 105.39198 | 26916 ft | 467 kts | 333° |
| 2026-05-07 23:43 | 0.69511 | 105.37637 | 26319 ft | 464 kts | 332° |
| 2026-05-07 23:43 | 0.72316 | 105.36068 | 25729 ft | 461 kts | 332° |
| 2026-05-07 23:43 | 0.75100 | 105.34501 | 25127 ft | 458 kts | 332° |
| 2026-05-07 23:44 | 0.77865 | 105.32944 | 24546 ft | 455 kts | 332° |
| 2026-05-07 23:44 | 0.80619 | 105.31396 | 23964 ft | 453 kts | 332° |
| 2026-05-07 23:44 | 0.83362 | 105.29855 | 23242 ft | 453 kts | 332° |
| 2026-05-07 23:44 | 0.86090 | 105.28324 | 22714 ft | 446 kts | 332° |
| 2026-05-07 23:45 | 0.88781 | 105.26813 | 22122 ft | 441 kts | 332° |
| 2026-05-07 23:45 | 0.91444 | 105.25318 | 21540 ft | 437 kts | 332° |
| 2026-05-07 23:45 | 0.94078 | 105.23839 | 20957 ft | 433 kts | 332° |
| 2026-05-07 23:45 | 0.96693 | 105.22371 | 20387 ft | 429 kts | 332° |
| 2026-05-07 23:46 | 0.99283 | 105.20918 | 19800 ft | 425 kts | 332° |
| 2026-05-07 23:46 | 1.01854 | 105.19474 | 19212 ft | 423 kts | 332° |
| 2026-05-07 23:46 | 1.04384 | 105.18054 | 18855 ft | 409 kts | 332° |
| 2026-05-07 23:46 | 1.06806 | 105.16692 | 18676 ft | 389 kts | 332° |
| 2026-05-07 23:47 | 1.09119 | 105.15392 | 18381 ft | 375 kts | 332° |
| 2026-05-07 23:47 | 1.11367 | 105.14130 | 17935 ft | 366 kts | 332° |
| 2026-05-07 23:47 | 1.13561 | 105.12899 | 17536 ft | 355 kts | 332° |
| 2026-05-07 23:47 | 1.15635 | 105.11652 | 17419 ft | 345 kts | 323° |
| 2026-05-07 23:48 | 1.17234 | 105.09875 | 17031 ft | 347 kts | 300° |
| 2026-05-07 23:48 | 1.18048 | 105.07632 | 16791 ft | 343 kts | 278° |
| 2026-05-07 23:48 | 1.18105 | 105.05263 | 16514 ft | 340 kts | 266° |
| 2026-05-07 23:48 | 1.17924 | 105.02914 | 16201 ft | 337 kts | 265° |
| 2026-05-07 23:49 | 1.17744 | 105.00587 | 15880 ft | 335 kts | 266° |
| 2026-05-07 23:49 | 1.17617 | 104.98271 | 15570 ft | 333 kts | 268° |
| 2026-05-07 23:49 | 1.17532 | 104.95967 | 15243 ft | 331 kts | 268° |
| 2026-05-07 23:49 | 1.17473 | 104.93689 | 15080 ft | 324 kts | 269° |
| 2026-05-07 23:50 | 1.17424 | 104.91482 | 14907 ft | 311 kts | 269° |
| 2026-05-07 23:50 | 1.17381 | 104.89374 | 14791 ft | 296 kts | 269° |
| 2026-05-07 23:50 | 1.17338 | 104.87325 | 14490 ft | 294 kts | 269° |
| 2026-05-07 23:50 | 1.17296 | 104.85282 | 14217 ft | 293 kts | 269° |
| 2026-05-07 23:51 | 1.17253 | 104.83257 | 13993 ft | 290 kts | 269° |
| 2026-05-07 23:51 | 1.17210 | 104.81249 | 13772 ft | 287 kts | 269° |
| 2026-05-07 23:51 | 1.17168 | 104.79261 | 13529 ft | 285 kts | 269° |
| 2026-05-07 23:51 | 1.17123 | 104.77294 | 13271 ft | 282 kts | 269° |
| 2026-05-07 23:52 | 1.17077 | 104.75335 | 13020 ft | 281 kts | 269° |
| 2026-05-07 23:52 | 1.17032 | 104.73395 | 12768 ft | 279 kts | 269° |
| 2026-05-07 23:52 | 1.16988 | 104.71459 | 12511 ft | 278 kts | 268° |
| 2026-05-07 23:52 | 1.16943 | 104.69534 | 12259 ft | 276 kts | 268° |
| 2026-05-07 23:53 | 1.16899 | 104.67615 | 12036 ft | 276 kts | 268° |
| 2026-05-07 23:53 | 1.16856 | 104.65709 | 11784 ft | 274 kts | 268° |
| 2026-05-07 23:53 | 1.16812 | 104.63806 | 11541 ft | 273 kts | 268° |
| 2026-05-07 23:53 | 1.16769 | 104.61914 | 11305 ft | 272 kts | 268° |
| 2026-05-07 23:54 | 1.16726 | 104.60029 | 11065 ft | 271 kts | 268° |
| 2026-05-07 23:54 | 1.16683 | 104.58153 | 10831 ft | 269 kts | 268° |
| 2026-05-07 23:54 | 1.16640 | 104.56290 | 10602 ft | 268 kts | 268° |
| 2026-05-07 23:54 | 1.16597 | 104.54437 | 10399 ft | 266 kts | 268° |
| 2026-05-07 23:55 | 1.16555 | 104.52616 | 10277 ft | 265 kts | 268° |
| 2026-05-07 23:55 | 1.16512 | 104.50760 | 10162 ft | 264 kts | 268° |
| 2026-05-07 23:55 | 1.16470 | 104.48927 | 10057 ft | 263 kts | 268° |
| 2026-05-07 23:55 | 1.16428 | 104.47105 | 10005 ft | 260 kts | 268° |
| 2026-05-07 23:56 | 1.16649 | 104.45313 | 10004 ft | 263 kts | 288° |
| 2026-05-07 23:56 | 1.17506 | 104.43696 | 10008 ft | 265 kts | 305° |
| 2026-05-07 23:56 | 1.18572 | 104.42192 | 9981 ft | 265 kts | 304° |
| 2026-05-07 23:56 | 1.19615 | 104.40670 | 9822 ft | 267 kts | 303° |
| 2026-05-07 23:57 | 1.20655 | 104.39135 | 9594 ft | 266 kts | 303° |
| 2026-05-07 23:57 | 1.21681 | 104.37619 | 9282 ft | 266 kts | 303° |
| 2026-05-07 23:57 | 1.22729 | 104.36071 | 8987 ft | 265 kts | 303° |
| 2026-05-07 23:57 | 1.23760 | 104.34552 | 8702 ft | 263 kts | 303° |
| 2026-05-07 23:58 | 1.24784 | 104.33044 | 8379 ft | 261 kts | 303° |
| 2026-05-07 23:58 | 1.25805 | 104.31544 | 7945 ft | 260 kts | 303° |
| 2026-05-07 23:58 | 1.26802 | 104.30077 | 7541 ft | 257 kts | 303° |
| 2026-05-07 23:58 | 1.27818 | 104.28582 | 7118 ft | 255 kts | 303° |
| 2026-05-07 23:59 | 1.28802 | 104.27135 | 6762 ft | 255 kts | 303° |
| 2026-05-07 23:59 | 1.29804 | 104.25660 | 6521 ft | 252 kts | 303° |
| 2026-05-07 23:59 | 1.30785 | 104.24216 | 6274 ft | 251 kts | 303° |
| 2026-05-07 23:59 | 1.31764 | 104.22776 | 6021 ft | 249 kts | 303° |
| 2026-05-08 00:00 | 1.32940 | 104.21526 | 5769 ft | 248 kts | 327° |
| 2026-05-08 00:00 | 1.34548 | 104.20940 | 5512 ft | 248 kts | 348° |
| 2026-05-08 00:00 | 1.36240 | 104.20611 | 5265 ft | 247 kts | 347° |
| 2026-05-08 00:00 | 1.37919 | 104.20257 | 5018 ft | 246 kts | 346° |
| 2026-05-08 00:01 | 1.39592 | 104.19891 | 4768 ft | 245 kts | 347° |
| 2026-05-08 00:01 | 1.41259 | 104.19534 | 4511 ft | 245 kts | 347° |
| 2026-05-08 00:01 | 1.42924 | 104.19177 | 4265 ft | 245 kts | 347° |
| 2026-05-08 00:01 | 1.44562 | 104.18823 | 4020 ft | 244 kts | 347° |
| 2026-05-08 00:02 | 1.46243 | 104.18462 | 3775 ft | 243 kts | 347° |
| 2026-05-08 00:02 | 1.47877 | 104.18063 | 3530 ft | 241 kts | 336° |
| 2026-05-08 00:02 | 1.49178 | 104.17069 | 3413 ft | 237 kts | 304° |
| 2026-05-08 00:02 | 1.49956 | 104.15625 | 3352 ft | 236 kts | 295° |
| 2026-05-08 00:03 | 1.50632 | 104.14158 | 3267 ft | 228 kts | 291° |
| 2026-05-08 00:03 | 1.51197 | 104.12706 | 3194 ft | 220 kts | 290° |
| 2026-05-08 00:03 | 1.51733 | 104.11313 | 3132 ft | 210 kts | 290° |
| 2026-05-08 00:03 | 1.52239 | 104.10005 | 3078 ft | 194 kts | 290° |
| 2026-05-08 00:04 | 1.52724 | 104.08754 | 3052 ft | 192 kts | 290° |
| 2026-05-08 00:04 | 1.52990 | 104.07479 | 3008 ft | 191 kts | 270° |
| 2026-05-08 00:04 | 1.52828 | 104.06153 | 2992 ft | 190 kts | 245° |
| 2026-05-08 00:04 | 1.51997 | 104.05146 | 2980 ft | 191 kts | 216° |
| 2026-05-08 00:05 | 1.50845 | 104.04494 | 2751 ft | 190 kts | 204° |
| 2026-05-08 00:05 | 1.49625 | 104.03998 | 2488 ft | 189 kts | 201° |
| 2026-05-08 00:05 | 1.48451 | 104.03494 | 2251 ft | 176 kts | 203° |
| 2026-05-08 00:05 | 1.47385 | 104.03047 | 2028 ft | 159 kts | 202° |
| 2026-05-08 00:06 | 1.46381 | 104.02618 | 1811 ft | 156 kts | 202° |
| 2026-05-08 00:06 | 1.45386 | 104.02196 | 1634 ft | 155 kts | 202° |
| 2026-05-08 00:06 | 1.44409 | 104.01780 | 1420 ft | 153 kts | 202° |
| 2026-05-08 00:06 | 1.43447 | 104.01372 | 1230 ft | 148 kts | 202° |
| 2026-05-08 00:07 | 1.42503 | 104.00970 | 1040 ft | 147 kts | 202° |
| 2026-05-08 00:07 | 1.41550 | 104.00565 | 862 ft | 147 kts | 202° |
| 2026-05-08 00:07 | 1.40621 | 104.00171 | 679 ft | 147 kts | 202° |
| 2026-05-08 00:07 | 1.39667 | 103.99763 | 486 ft | 147 kts | 202° |
| 2026-05-08 00:08 | 1.38722 | 103.99361 | 315 ft | 148 kts | 201° |
| 2026-05-08 00:08 | 1.37791 | 103.98968 | 121 ft | 147 kts | 201° |
| 2026-05-08 00:08 | 1.36878 | 103.98574 | 37 ft | 129 kts | 202° |
| 2026-05-08 00:08 | 1.36203 | 103.98297 | 35 ft | 75 kts | 202° |
| 2026-05-08 00:09 | 1.35865 | 103.98155 | 35 ft | 40 kts | 202° |
| 2026-05-08 00:09 | 1.35662 | 103.98110 | 35 ft | 23 kts | 181° |
| 2026-05-08 00:09 | 1.35567 | 103.98118 | 35 ft | 9 kts | 174° |
| 2026-05-08 00:09 | 1.35507 | 103.98124 | 35 ft | 9 kts | 173° |
| 2026-05-08 00:10 | 1.35447 | 103.98131 | 35 ft | 9 kts | 173° |
| 2026-05-08 00:10 | 1.35393 | 103.98137 | 35 ft | 8 kts | 173° |
| 2026-05-08 00:10 | 1.35329 | 103.98150 | 35 ft | 10 kts | 148° |
| 2026-05-08 00:10 | 1.35310 | 103.98203 | 35 ft | 8 kts | 59° |
| 2026-05-08 00:11 | 1.35363 | 103.98235 | 35 ft | 11 kts | 22° |
| 2026-05-08 00:11 | 1.35444 | 103.98270 | 35 ft | 14 kts | 23° |
| 2026-05-08 00:11 | 1.35504 | 103.98295 | 35 ft | 14 kts | 23° |
| 2026-05-08 00:11 | 1.35616 | 103.98343 | 35 ft | 12 kts | 23° |
| 2026-05-08 00:12 | 1.35662 | 103.98362 | 35 ft | 10 kts | 23° |
| 2026-05-08 00:12 | 1.35768 | 103.98407 | 35 ft | 15 kts | 23° |
| 2026-05-08 00:12 | 1.35836 | 103.98435 | 35 ft | 17 kts | 23° |
| 2026-05-08 00:12 | 1.35944 | 103.98481 | 35 ft | 15 kts | 22° |
| 2026-05-08 00:13 | 1.36009 | 103.98516 | 35 ft | 9 kts | 48° |
| 2026-05-08 00:13 | 1.36041 | 103.98572 | 35 ft | 8 kts | 97° |
| 2026-05-08 00:13 | 1.36016 | 103.98597 | 35 ft | 7 kts | 156° |
| 2026-05-08 00:13 | 1.35965 | 103.98618 | 35 ft | 6 kts | 160° |
| 2026-05-08 00:14 | 1.35934 | 103.98628 | 35 ft | 3 kts | 160° |
| 2026-05-08 00:14 | 1.35922 | 103.98633 | 35 ft | 2 kts | 160° |
| 2026-05-08 00:14 | 1.35920 | 103.98633 | 35 ft | 0 kts | 160° |